Dirección General De Aeronáutica Civil

Dirección Meteorológica de Chile - Servicios Climáticos

Informe General de Control de Calidad de la Estación

Listado de niveles de control de calidad para algunos parámetros
Estación Nilahue - La Quebrada (340066)
Fecha de Revisión de los datos :

Elementos

Registros Niveles de Control Total
Nivel 0 Nivel 1 Nivel 2 Nivel 3 Errores Porcentaje
01 Temperatura del Aire Seco 51.341 0 . 0 . 0 . 0 . 0 0.00 %
02 Temperatura de Rocío 46.197 0 . 0 . 0 . 0 . 0 0.00 %
03 Humedad Relativa del Aire 50.899 0 . 0 . 0 . 0 . 0 0.00 %
04 Temperatura Máxima PM 3.644 0 . 0 . 6 0.16 % 0 . 6 0.16 %
05 Temperatura Mínima AM 3.613 0 . 0 . 649 17.96 % 0 . 649 17.96 %
06 Viento a 10 m. de Altura 56.030 0 . 0 . 0 . 0 . 0 0.00 %
07 Agua Caida, Acumulada 6 Horas 9.356 0 . 0 . 0 . 0 . 0 0.00 %
08 Presión Atm. a Nivel de Estación (QFE) 56.019 0 . 0 . 0 . 0 . 0 0.00 %
09 Presión Atm. a Nivel Medio del Mar (QFF) 56.019 0 . 0 . 0 . 0 . 0 0.00 %
10 Presión Atm. Estándar OACI (QNH) 56.019 0 . 0 . 0 . 0 . 0 0.00 %

Totales

389.137 . 0.0000 % . 0.0000 % . 0.1683 % . 0.0000 % 655 0.1683 %

Detalle de Errores Encontrados

Nivel Fecha del Dato Descripción Información Error Fecha Ingreso
2 1999-02-16 00:00:00 Temperatura 27.8 del 15-02-1999 18:00, Mayor que la Máxima 20.0 16-02-1999 00:00 27.8 -- 20.0 2023-12-29 05:58:00
2 1999-03-07 00:00:00 Temperatura 18.0 del 07-03-1999 00:00, Mayor que la Máxima 17.0 07-03-1999 00:00 18.0 -- 17.0 2023-12-29 05:58:00
2 1999-06-29 00:00:00 Temperatura 12.8 del 28-06-1999 18:00, Mayor que la Máxima 12.6 29-06-1999 00:00 12.8 -- 12.6 2023-12-29 05:59:00
2 2002-05-06 00:00:00 Temperatura 21.0 del 05-05-2002 18:00, Mayor que la Máxima 20.2 06-05-2002 00:00 21.0 -- 20.2 2023-12-29 06:00:00
2 2002-08-17 00:00:00 Temperatura 18.3 del 16-08-2002 18:00, Mayor que la Máxima 18.0 17-08-2002 00:00 18.3 -- 18.0 2023-12-29 06:00:00
2 2022-06-09 00:00:00 Temperatura 14.5 del 08-06-2022 18:00, Mayor que la Máxima 9.7 09-06-2022 00:00 14.5 -- 9.7 2022-06-09 00:21:00
2 2016-09-27 12:00:00 Temperatura 5.7 del 27-09-2016 06:00, Menor que la Mínima 12.7 27-09-2016 12:00 5.7 -- 12.7 2016-09-27 12:22:00
2 2016-09-30 12:00:00 Temperatura 4.0 del 30-09-2016 08:00, Menor que la Mínima 12.8 30-09-2016 12:00 4.0 -- 12.8 2016-09-30 12:22:00
2 2016-10-01 12:00:00 Temperatura 6.0 del 01-10-2016 10:00, Menor que la Mínima 9.0 01-10-2016 12:00 6.0 -- 9.0 2016-10-01 12:22:00
2 2016-10-02 12:00:00 Temperatura 4.5 del 02-10-2016 11:00, Menor que la Mínima 10.4 02-10-2016 12:00 4.5 -- 10.4 2016-10-02 12:22:00
2 2016-10-03 12:00:00 Temperatura 4.8 del 03-10-2016 08:00, Menor que la Mínima 6.9 03-10-2016 12:00 4.8 -- 6.9 2016-10-03 12:23:00
2 2016-10-04 12:00:00 Temperatura 8.6 del 04-10-2016 09:00, Menor que la Mínima 9.4 04-10-2016 12:00 8.6 -- 9.4 2016-10-04 12:22:00
2 2016-10-05 12:00:00 Temperatura 4.1 del 05-10-2016 09:00, Menor que la Mínima 13.6 05-10-2016 12:00 4.1 -- 13.6 2016-10-05 12:22:00
2 2016-10-06 12:00:00 Temperatura 6.6 del 06-10-2016 09:00, Menor que la Mínima 12.6 06-10-2016 12:00 6.6 -- 12.6 2016-10-06 12:22:00
2 2016-10-07 12:00:00 Temperatura 3.3 del 07-10-2016 10:00, Menor que la Mínima 12.0 07-10-2016 12:00 3.3 -- 12.0 2016-10-07 12:22:00
2 2016-10-08 12:00:00 Temperatura 0.8 del 08-10-2016 08:00, Menor que la Mínima 11.7 08-10-2016 12:00 0.8 -- 11.7 2016-10-08 12:22:00
2 2016-10-09 12:00:00 Temperatura 4.9 del 09-10-2016 10:00, Menor que la Mínima 5.1 09-10-2016 12:00 4.9 -- 5.1 2016-10-09 12:22:00
2 2016-10-10 12:00:00 Temperatura 6.6 del 10-10-2016 07:00, Menor que la Mínima 11.5 10-10-2016 12:00 6.6 -- 11.5 2016-10-10 12:22:00
2 2016-10-11 12:00:00 Temperatura 6.9 del 11-10-2016 10:00, Menor que la Mínima 9.5 11-10-2016 12:00 6.9 -- 9.5 2016-10-11 12:22:00
2 2016-10-12 12:00:00 Temperatura 6.8 del 12-10-2016 08:00, Menor que la Mínima 10.3 12-10-2016 12:00 6.8 -- 10.3 2016-10-12 12:22:00
2 2016-10-13 12:00:00 Temperatura 9.1 del 13-10-2016 08:00, Menor que la Mínima 10.2 13-10-2016 12:00 9.1 -- 10.2 2016-10-13 12:22:00
2 2016-10-14 12:00:00 Temperatura 11.2 del 14-10-2016 04:00, Menor que la Mínima 11.4 14-10-2016 12:00 11.2 -- 11.4 2016-10-14 12:22:00
2 2016-10-15 12:00:00 Temperatura 10.6 del 15-10-2016 06:00, Menor que la Mínima 12.2 15-10-2016 12:00 10.6 -- 12.2 2016-10-15 12:22:00
2 2016-10-16 12:00:00 Temperatura 12.1 del 16-10-2016 11:00, Menor que la Mínima 12.7 16-10-2016 12:00 12.1 -- 12.7 2016-10-16 12:22:00
2 2016-10-17 12:00:00 Temperatura 4.1 del 17-10-2016 10:00, Menor que la Mínima 10.8 17-10-2016 12:00 4.1 -- 10.8 2016-10-17 12:22:00
2 2016-10-18 12:00:00 Temperatura 5.1 del 18-10-2016 10:00, Menor que la Mínima 7.1 18-10-2016 12:00 5.1 -- 7.1 2016-10-18 12:22:00
2 2016-10-19 12:00:00 Temperatura 2.7 del 19-10-2016 08:00, Menor que la Mínima 8.9 19-10-2016 12:00 2.7 -- 8.9 2016-10-19 12:22:00
2 2016-10-20 12:00:00 Temperatura 4.3 del 20-10-2016 09:00, Menor que la Mínima 6.2 20-10-2016 12:00 4.3 -- 6.2 2016-10-20 12:22:00
2 2016-10-21 12:00:00 Temperatura 4.8 del 21-10-2016 10:00, Menor que la Mínima 7.7 21-10-2016 12:00 4.8 -- 7.7 2016-10-21 12:22:00
2 2016-10-22 12:00:00 Temperatura 8.6 del 22-10-2016 04:00, Menor que la Mínima 11.9 22-10-2016 12:00 8.6 -- 11.9 2016-10-22 12:22:00
2 2016-10-23 12:00:00 Temperatura 10.1 del 23-10-2016 10:00, Menor que la Mínima 12.4 23-10-2016 12:00 10.1 -- 12.4 2016-10-23 12:22:00
2 2016-10-24 12:00:00 Temperatura 7.9 del 24-10-2016 09:00, Menor que la Mínima 11.0 24-10-2016 12:00 7.9 -- 11.0 2016-10-24 12:22:00
2 2016-10-25 12:00:00 Temperatura 4.9 del 25-10-2016 10:00, Menor que la Mínima 9.2 25-10-2016 12:00 4.9 -- 9.2 2016-10-25 12:22:00
2 2016-10-26 12:00:00 Temperatura 8.4 del 26-10-2016 10:00, Menor que la Mínima 12.5 26-10-2016 12:00 8.4 -- 12.5 2016-10-26 12:22:00
2 2016-10-27 12:00:00 Temperatura 9.4 del 27-10-2016 10:00, Menor que la Mínima 16.6 27-10-2016 12:00 9.4 -- 16.6 2016-10-27 12:23:00
2 2016-10-28 12:00:00 Temperatura 11.9 del 28-10-2016 04:00, Menor que la Mínima 15.2 28-10-2016 12:00 11.9 -- 15.2 2016-10-28 12:22:00
2 2016-10-30 12:00:00 Temperatura 9.7 del 30-10-2016 04:00, Menor que la Mínima 13.6 30-10-2016 12:00 9.7 -- 13.6 2016-10-30 12:22:00
2 2016-10-31 12:00:00 Temperatura 9.1 del 31-10-2016 08:00, Menor que la Mínima 11.9 31-10-2016 12:00 9.1 -- 11.9 2016-10-31 12:22:00
2 2016-11-01 12:00:00 Temperatura 2.4 del 01-11-2016 10:00, Menor que la Mínima 12.1 01-11-2016 12:00 2.4 -- 12.1 2016-11-01 12:22:00
2 2016-11-03 12:00:00 Temperatura 8.4 del 03-11-2016 09:00, Menor que la Mínima 13.4 03-11-2016 12:00 8.4 -- 13.4 2016-11-03 19:23:00
2 2016-11-04 12:00:00 Temperatura 17.3 del 04-11-2016 10:00, Menor que la Mínima 18.7 04-11-2016 12:00 17.3 -- 18.7 2016-11-04 12:23:00
2 2016-11-05 12:00:00 Temperatura 9.0 del 05-11-2016 10:00, Menor que la Mínima 20.0 05-11-2016 12:00 9.0 -- 20.0 2016-11-05 12:22:00
2 2016-11-06 12:00:00 Temperatura 8.5 del 06-11-2016 07:00, Menor que la Mínima 14.0 06-11-2016 12:00 8.5 -- 14.0 2016-11-06 12:22:00
2 2016-11-07 12:00:00 Temperatura 9.2 del 07-11-2016 10:00, Menor que la Mínima 10.9 07-11-2016 12:00 9.2 -- 10.9 2016-11-07 12:22:00
2 2016-11-08 12:00:00 Temperatura 8.7 del 08-11-2016 10:00, Menor que la Mínima 16.6 08-11-2016 12:00 8.7 -- 16.6 2016-11-09 04:41:00
2 2016-11-09 12:00:00 Temperatura 6.2 del 09-11-2016 09:00, Menor que la Mínima 14.2 09-11-2016 12:00 6.2 -- 14.2 2016-11-09 12:22:00
2 2016-11-10 12:00:00 Temperatura 7.7 del 10-11-2016 08:00, Menor que la Mínima 16.6 10-11-2016 12:00 7.7 -- 16.6 2016-11-10 12:22:00
2 2016-11-11 12:00:00 Temperatura 8.3 del 11-11-2016 10:00, Menor que la Mínima 15.6 11-11-2016 12:00 8.3 -- 15.6 2016-11-11 12:22:00
2 2016-11-12 12:00:00 Temperatura 6.8 del 12-11-2016 07:00, Menor que la Mínima 14.8 12-11-2016 12:00 6.8 -- 14.8 2016-11-12 12:22:00
2 2016-11-13 12:00:00 Temperatura 7.5 del 13-11-2016 05:00, Menor que la Mínima 11.4 13-11-2016 12:00 7.5 -- 11.4 2016-11-13 12:22:00
2 2016-11-14 12:00:00 Temperatura 4.2 del 14-11-2016 09:00, Menor que la Mínima 11.6 14-11-2016 12:00 4.2 -- 11.6 2016-11-14 12:22:00
2 2016-11-15 12:00:00 Temperatura 7.5 del 15-11-2016 10:00, Menor que la Mínima 11.6 15-11-2016 12:00 7.5 -- 11.6 2016-11-15 12:22:00
2 2016-11-16 12:00:00 Temperatura 8.8 del 16-11-2016 06:00, Menor que la Mínima 15.4 16-11-2016 12:00 8.8 -- 15.4 2016-11-16 12:22:00
2 2016-11-17 12:00:00 Temperatura 6.9 del 17-11-2016 10:00, Menor que la Mínima 14.5 17-11-2016 12:00 6.9 -- 14.5 2016-11-17 12:22:00
2 2016-11-18 12:00:00 Temperatura 7.2 del 18-11-2016 08:00, Menor que la Mínima 17.3 18-11-2016 12:00 7.2 -- 17.3 2016-11-18 12:22:00
2 2016-11-19 12:00:00 Temperatura 9.3 del 19-11-2016 06:00, Menor que la Mínima 15.3 19-11-2016 12:00 9.3 -- 15.3 2016-11-19 12:22:00
2 2016-11-20 12:00:00 Temperatura 12.0 del 20-11-2016 08:00, Menor que la Mínima 13.0 20-11-2016 12:00 12.0 -- 13.0 2016-11-20 12:22:00
2 2016-11-21 12:00:00 Temperatura 6.4 del 21-11-2016 09:00, Menor que la Mínima 13.2 21-11-2016 12:00 6.4 -- 13.2 2016-11-21 12:25:00
2 2016-11-22 12:00:00 Temperatura 7.3 del 22-11-2016 09:00, Menor que la Mínima 13.4 22-11-2016 12:00 7.3 -- 13.4 2016-11-22 12:22:00
2 2016-11-23 12:00:00 Temperatura 9.8 del 23-11-2016 08:00, Menor que la Mínima 15.0 23-11-2016 12:00 9.8 -- 15.0 2016-11-23 12:22:00
2 2016-11-24 12:00:00 Temperatura 11.3 del 24-11-2016 06:00, Menor que la Mínima 15.0 24-11-2016 12:00 11.3 -- 15.0 2016-11-24 12:22:00
2 2016-11-25 12:00:00 Temperatura 11.4 del 25-11-2016 04:00, Menor que la Mínima 15.9 25-11-2016 12:00 11.4 -- 15.9 2016-11-25 12:22:00
2 2016-11-26 12:00:00 Temperatura 14.4 del 26-11-2016 07:00, Menor que la Mínima 15.8 26-11-2016 12:00 14.4 -- 15.8 2016-11-26 12:22:00
2 2016-11-27 12:00:00 Temperatura 7.7 del 27-11-2016 09:00, Menor que la Mínima 16.3 27-11-2016 12:00 7.7 -- 16.3 2016-11-27 12:22:00
2 2016-11-28 12:00:00 Temperatura 8.0 del 28-11-2016 06:00, Menor que la Mínima 16.2 28-11-2016 12:00 8.0 -- 16.2 2016-11-28 12:22:00
2 2016-11-29 12:00:00 Temperatura 8.7 del 29-11-2016 08:00, Menor que la Mínima 17.9 29-11-2016 12:00 8.7 -- 17.9 2016-11-29 12:22:00
2 2016-11-30 12:00:00 Temperatura 13.6 del 30-11-2016 03:00, Menor que la Mínima 16.8 30-11-2016 12:00 13.6 -- 16.8 2016-11-30 12:22:00
2 2016-12-01 12:00:00 Temperatura 9.1 del 01-12-2016 09:00, Menor que la Mínima 16.1 01-12-2016 12:00 9.1 -- 16.1 2016-12-01 12:22:00
2 2016-12-02 12:00:00 Temperatura 11.4 del 02-12-2016 05:00, Menor que la Mínima 15.3 02-12-2016 12:00 11.4 -- 15.3 2016-12-02 12:22:00
2 2016-12-03 12:00:00 Temperatura 13.0 del 03-12-2016 03:00, Menor que la Mínima 13.6 03-12-2016 12:00 13.0 -- 13.6 2016-12-03 12:22:00
2 2016-12-04 12:00:00 Temperatura 13.8 del 04-12-2016 01:00, Menor que la Mínima 15.0 04-12-2016 12:00 13.8 -- 15.0 2016-12-04 12:22:00
2 2016-12-05 12:00:00 Temperatura 6.9 del 05-12-2016 10:00, Menor que la Mínima 16.0 05-12-2016 12:00 6.9 -- 16.0 2016-12-05 12:22:00
2 2016-12-06 12:00:00 Temperatura 10.3 del 06-12-2016 05:00, Menor que la Mínima 15.9 06-12-2016 12:00 10.3 -- 15.9 2016-12-06 12:22:00
2 2016-12-07 12:00:00 Temperatura 7.8 del 07-12-2016 10:00, Menor que la Mínima 16.3 07-12-2016 12:00 7.8 -- 16.3 2016-12-07 12:22:00
2 2016-12-08 12:00:00 Temperatura 9.1 del 08-12-2016 08:00, Menor que la Mínima 15.0 08-12-2016 12:00 9.1 -- 15.0 2016-12-08 12:22:00
2 2016-12-09 12:00:00 Temperatura 12.9 del 09-12-2016 03:00, Menor que la Mínima 15.1 09-12-2016 12:00 12.9 -- 15.1 2016-12-09 12:22:00
2 2016-12-10 12:00:00 Temperatura 9.5 del 10-12-2016 09:00, Menor que la Mínima 17.1 10-12-2016 12:00 9.5 -- 17.1 2016-12-10 12:22:00
2 2016-12-11 12:00:00 Temperatura 13.3 del 11-12-2016 09:00, Menor que la Mínima 17.3 11-12-2016 12:00 13.3 -- 17.3 2016-12-11 12:22:00
2 2016-12-12 12:00:00 Temperatura 9.3 del 12-12-2016 09:00, Menor que la Mínima 19.8 12-12-2016 12:00 9.3 -- 19.8 2016-12-12 12:22:00
2 2016-12-13 12:00:00 Temperatura 12.3 del 13-12-2016 04:00, Menor que la Mínima 18.2 13-12-2016 12:00 12.3 -- 18.2 2016-12-13 12:22:00
2 2016-12-14 12:00:00 Temperatura 10.0 del 14-12-2016 09:00, Menor que la Mínima 16.4 14-12-2016 12:00 10.0 -- 16.4 2016-12-14 12:22:00
2 2016-12-15 12:00:00 Temperatura 8.7 del 15-12-2016 10:00, Menor que la Mínima 18.8 15-12-2016 12:00 8.7 -- 18.8 2016-12-15 12:22:00
2 2016-12-16 12:00:00 Temperatura 13.3 del 16-12-2016 03:00, Menor que la Mínima 15.0 16-12-2016 12:00 13.3 -- 15.0 2016-12-16 12:22:00
2 2016-12-17 12:00:00 Temperatura 11.4 del 17-12-2016 06:00, Menor que la Mínima 17.4 17-12-2016 12:00 11.4 -- 17.4 2016-12-17 12:21:00
2 2016-12-18 12:00:00 Temperatura 15.3 del 18-12-2016 07:00, Menor que la Mínima 16.1 18-12-2016 12:00 15.3 -- 16.1 2016-12-18 12:22:00
2 2016-12-19 12:00:00 Temperatura 8.3 del 19-12-2016 09:00, Menor que la Mínima 18.5 19-12-2016 12:00 8.3 -- 18.5 2016-12-19 12:22:00
2 2016-12-20 12:00:00 Temperatura 7.9 del 20-12-2016 10:00, Menor que la Mínima 16.4 20-12-2016 12:00 7.9 -- 16.4 2016-12-20 12:22:00
2 2016-12-21 12:00:00 Temperatura 10.1 del 21-12-2016 09:00, Menor que la Mínima 14.8 21-12-2016 12:00 10.1 -- 14.8 2016-12-21 12:22:00
2 2016-12-22 12:00:00 Temperatura 11.9 del 22-12-2016 04:00, Menor que la Mínima 18.4 22-12-2016 12:00 11.9 -- 18.4 2016-12-22 12:22:00
2 2016-12-23 12:00:00 Temperatura 6.7 del 23-12-2016 09:00, Menor que la Mínima 15.5 23-12-2016 12:00 6.7 -- 15.5 2016-12-23 12:22:00
2 2016-12-24 12:00:00 Temperatura 8.2 del 24-12-2016 08:00, Menor que la Mínima 17.1 24-12-2016 12:00 8.2 -- 17.1 2016-12-24 12:22:00
2 2016-12-25 12:00:00 Temperatura 8.9 del 25-12-2016 09:00, Menor que la Mínima 14.6 25-12-2016 12:00 8.9 -- 14.6 2016-12-25 12:22:00
2 2016-12-26 12:00:00 Temperatura 12.8 del 26-12-2016 09:00, Menor que la Mínima 13.5 26-12-2016 12:00 12.8 -- 13.5 2016-12-26 12:22:00
2 2016-12-27 12:00:00 Temperatura 10.3 del 27-12-2016 07:00, Menor que la Mínima 14.5 27-12-2016 12:00 10.3 -- 14.5 2016-12-27 12:22:00
2 2016-12-28 12:00:00 Temperatura 10.6 del 28-12-2016 09:00, Menor que la Mínima 18.8 28-12-2016 12:00 10.6 -- 18.8 2016-12-28 12:22:00
2 2016-12-29 12:00:00 Temperatura 14.9 del 29-12-2016 11:00, Menor que la Mínima 16.5 29-12-2016 12:00 14.9 -- 16.5 2016-12-29 12:22:00
2 2016-12-30 12:00:00 Temperatura 12.2 del 30-12-2016 06:00, Menor que la Mínima 15.0 30-12-2016 12:00 12.2 -- 15.0 2016-12-30 12:22:00
2 2016-12-31 12:00:00 Temperatura 14.5 del 31-12-2016 03:00, Menor que la Mínima 15.7 31-12-2016 12:00 14.5 -- 15.7 2016-12-31 12:20:00
2 2017-01-02 12:00:00 Temperatura 9.0 del 02-01-2017 09:00, Menor que la Mínima 18.4 02-01-2017 12:00 9.0 -- 18.4 2017-01-02 12:22:00
2 2017-01-03 12:00:00 Temperatura 10.3 del 03-01-2017 09:00, Menor que la Mínima 17.5 03-01-2017 12:00 10.3 -- 17.5 2017-01-03 12:22:00
2 2017-01-04 12:00:00 Temperatura 13.1 del 04-01-2017 10:00, Menor que la Mínima 18.3 04-01-2017 12:00 13.1 -- 18.3 2017-01-04 12:22:00
2 2017-01-05 12:00:00 Temperatura 11.9 del 05-01-2017 10:00, Menor que la Mínima 17.4 05-01-2017 12:00 11.9 -- 17.4 2017-01-05 12:22:00
2 2017-01-06 12:00:00 Temperatura 9.3 del 06-01-2017 10:00, Menor que la Mínima 16.5 06-01-2017 12:00 9.3 -- 16.5 2017-01-06 12:22:00
2 2017-01-07 12:00:00 Temperatura 9.5 del 07-01-2017 09:00, Menor que la Mínima 15.8 07-01-2017 12:00 9.5 -- 15.8 2017-01-07 12:22:00
2 2017-01-08 12:00:00 Temperatura 12.8 del 08-01-2017 07:00, Menor que la Mínima 17.3 08-01-2017 12:00 12.8 -- 17.3 2017-01-08 12:22:00
2 2017-01-09 12:00:00 Temperatura 16.4 del 09-01-2017 09:00, Menor que la Mínima 16.6 09-01-2017 12:00 16.4 -- 16.6 2017-01-09 12:22:00
2 2017-01-10 12:00:00 Temperatura 13.9 del 10-01-2017 08:00, Menor que la Mínima 18.1 10-01-2017 12:00 13.9 -- 18.1 2017-01-10 12:22:00
2 2017-01-11 12:00:00 Temperatura 9.2 del 11-01-2017 10:00, Menor que la Mínima 19.8 11-01-2017 12:00 9.2 -- 19.8 2017-01-11 12:22:00
2 2017-01-12 12:00:00 Temperatura 10.6 del 12-01-2017 08:00, Menor que la Mínima 17.8 12-01-2017 12:00 10.6 -- 17.8 2017-01-12 12:37:00
2 2017-01-13 12:00:00 Temperatura 17.3 del 13-01-2017 06:00, Menor que la Mínima 21.6 13-01-2017 12:00 17.3 -- 21.6 2017-01-13 12:22:00
2 2017-01-14 12:00:00 Temperatura 11.9 del 14-01-2017 08:00, Menor que la Mínima 22.4 14-01-2017 12:00 11.9 -- 22.4 2017-01-14 12:22:00
2 2017-01-15 12:00:00 Temperatura 7.6 del 15-01-2017 10:00, Menor que la Mínima 17.3 15-01-2017 12:00 7.6 -- 17.3 2017-01-15 12:22:00
2 2017-01-16 12:00:00 Temperatura 9.3 del 16-01-2017 10:00, Menor que la Mínima 15.6 16-01-2017 12:00 9.3 -- 15.6 2017-01-16 12:22:00
2 2017-01-17 12:00:00 Temperatura 13.5 del 17-01-2017 06:00, Menor que la Mínima 14.5 17-01-2017 12:00 13.5 -- 14.5 2017-01-17 12:22:00
2 2017-01-18 12:00:00 Temperatura 15.3 del 18-01-2017 10:00, Menor que la Mínima 22.8 18-01-2017 12:00 15.3 -- 22.8 2017-01-18 12:22:00
2 2017-01-19 12:00:00 Temperatura 9.6 del 19-01-2017 10:00, Menor que la Mínima 19.6 19-01-2017 12:00 9.6 -- 19.6 2017-01-19 13:22:00
2 2017-01-20 12:00:00 Temperatura 11.3 del 20-01-2017 10:00, Menor que la Mínima 16.3 20-01-2017 12:00 11.3 -- 16.3 2017-01-20 12:37:00
2 2017-01-21 12:00:00 Temperatura 17.0 del 21-01-2017 04:00, Menor que la Mínima 25.1 21-01-2017 12:00 17.0 -- 25.1 2017-01-21 12:37:00
2 2017-01-22 12:00:00 Temperatura 11.6 del 22-01-2017 10:00, Menor que la Mínima 20.0 22-01-2017 12:00 11.6 -- 20.0 2017-01-22 12:22:00
2 2017-01-23 12:00:00 Temperatura 10.1 del 23-01-2017 10:00, Menor que la Mínima 16.5 23-01-2017 12:00 10.1 -- 16.5 2017-01-23 12:22:00
2 2017-01-24 12:00:00 Temperatura 12.3 del 24-01-2017 10:00, Menor que la Mínima 15.4 24-01-2017 12:00 12.3 -- 15.4 2017-01-24 12:22:00
2 2017-01-25 12:00:00 Temperatura 18.4 del 25-01-2017 03:00, Menor que la Mínima 22.3 25-01-2017 12:00 18.4 -- 22.3 2017-01-25 12:22:00
2 2017-01-26 12:00:00 Temperatura 13.9 del 26-01-2017 10:00, Menor que la Mínima 22.0 26-01-2017 12:00 13.9 -- 22.0 2017-01-26 12:22:00
2 2017-01-27 12:00:00 Temperatura 15.0 del 27-01-2017 10:00, Menor que la Mínima 22.1 27-01-2017 12:00 15.0 -- 22.1 2017-01-27 12:22:00
2 2017-01-28 12:00:00 Temperatura 14.3 del 28-01-2017 09:00, Menor que la Mínima 17.4 28-01-2017 12:00 14.3 -- 17.4 2017-01-28 12:22:00
2 2017-01-29 12:00:00 Temperatura 15.1 del 29-01-2017 04:00, Menor que la Mínima 16.0 29-01-2017 12:00 15.1 -- 16.0 2017-01-29 12:37:00
2 2017-01-30 12:00:00 Temperatura 11.4 del 30-01-2017 10:00, Menor que la Mínima 16.3 30-01-2017 12:00 11.4 -- 16.3 2017-01-30 12:22:00
2 2017-01-31 12:00:00 Temperatura 11.7 del 31-01-2017 10:00, Menor que la Mínima 15.7 31-01-2017 12:00 11.7 -- 15.7 2017-01-31 12:22:00
2 2017-02-02 12:00:00 Temperatura 9.7 del 02-02-2017 07:00, Menor que la Mínima 15.3 02-02-2017 12:00 9.7 -- 15.3 2017-02-02 12:22:00
2 2017-02-03 12:00:00 Temperatura 8.5 del 03-02-2017 09:00, Menor que la Mínima 13.5 03-02-2017 12:00 8.5 -- 13.5 2017-02-03 12:22:00
2 2017-02-05 12:00:00 Temperatura 9.3 del 05-02-2017 10:00, Menor que la Mínima 15.7 05-02-2017 12:00 9.3 -- 15.7 2017-02-05 12:22:00
2 2017-02-06 12:00:00 Temperatura 9.0 del 06-02-2017 10:00, Menor que la Mínima 15.9 06-02-2017 12:00 9.0 -- 15.9 2017-02-06 12:22:00
2 2017-02-07 12:00:00 Temperatura 10.4 del 07-02-2017 10:00, Menor que la Mínima 15.8 07-02-2017 12:00 10.4 -- 15.8 2017-02-07 12:22:00
2 2017-02-08 12:00:00 Temperatura 11.7 del 08-02-2017 06:00, Menor que la Mínima 14.8 08-02-2017 12:00 11.7 -- 14.8 2017-02-08 12:22:00
2 2017-02-09 12:00:00 Temperatura 12.5 del 09-02-2017 08:00, Menor que la Mínima 15.4 09-02-2017 12:00 12.5 -- 15.4 2017-02-09 12:22:00
2 2017-02-10 12:00:00 Temperatura 12.0 del 10-02-2017 08:00, Menor que la Mínima 19.0 10-02-2017 12:00 12.0 -- 19.0 2017-02-10 12:22:00
2 2017-02-11 12:00:00 Temperatura 8.8 del 11-02-2017 10:00, Menor que la Mínima 18.2 11-02-2017 12:00 8.8 -- 18.2 2017-02-11 12:22:00
2 2017-02-12 12:00:00 Temperatura 10.4 del 12-02-2017 10:00, Menor que la Mínima 13.9 12-02-2017 12:00 10.4 -- 13.9 2017-02-12 12:22:00
2 2017-02-13 12:00:00 Temperatura 9.4 del 13-02-2017 10:00, Menor que la Mínima 16.5 13-02-2017 12:00 9.4 -- 16.5 2017-02-13 12:22:00
2 2017-02-14 12:00:00 Temperatura 12.9 del 14-02-2017 05:00, Menor que la Mínima 13.9 14-02-2017 12:00 12.9 -- 13.9 2017-02-14 12:22:00
2 2017-02-15 12:00:00 Temperatura 12.6 del 15-02-2017 08:00, Menor que la Mínima 16.0 15-02-2017 12:00 12.6 -- 16.0 2017-02-15 12:22:00
2 2017-02-16 12:00:00 Temperatura 12.4 del 16-02-2017 06:00, Menor que la Mínima 15.6 16-02-2017 12:00 12.4 -- 15.6 2017-02-16 12:22:00
2 2017-02-17 12:00:00 Temperatura 13.4 del 17-02-2017 10:00, Menor que la Mínima 15.8 17-02-2017 12:00 13.4 -- 15.8 2017-02-17 12:22:00
2 2017-02-18 12:00:00 Temperatura 6.5 del 18-02-2017 10:00, Menor que la Mínima 16.8 18-02-2017 12:00 6.5 -- 16.8 2017-02-18 12:22:00
2 2017-02-19 12:00:00 Temperatura 9.5 del 19-02-2017 09:00, Menor que la Mínima 12.2 19-02-2017 12:00 9.5 -- 12.2 2017-02-19 12:22:00
2 2017-02-20 12:00:00 Temperatura 13.6 del 20-02-2017 06:00, Menor que la Mínima 16.1 20-02-2017 12:00 13.6 -- 16.1 2017-02-20 12:22:00
2 2017-02-21 12:00:00 Temperatura 13.8 del 21-02-2017 10:00, Menor que la Mínima 20.0 21-02-2017 12:00 13.8 -- 20.0 2017-02-21 12:22:00
2 2017-02-22 12:00:00 Temperatura 14.5 del 22-02-2017 10:00, Menor que la Mínima 20.1 22-02-2017 12:00 14.5 -- 20.1 2017-02-22 12:22:00
2 2017-02-23 12:00:00 Temperatura 14.8 del 23-02-2017 09:00, Menor que la Mínima 17.7 23-02-2017 12:00 14.8 -- 17.7 2017-02-23 12:22:00
2 2017-02-24 12:00:00 Temperatura 15.7 del 24-02-2017 10:00, Menor que la Mínima 17.4 24-02-2017 12:00 15.7 -- 17.4 2017-02-24 12:22:00
2 2017-02-25 12:00:00 Temperatura 15.8 del 25-02-2017 10:00, Menor que la Mínima 18.3 25-02-2017 12:00 15.8 -- 18.3 2017-02-25 12:22:00
2 2017-02-26 12:00:00 Temperatura 15.7 del 26-02-2017 10:00, Menor que la Mínima 17.4 26-02-2017 12:00 15.7 -- 17.4 2017-02-26 12:37:00
2 2017-02-27 12:00:00 Temperatura 15.0 del 27-02-2017 09:00, Menor que la Mínima 17.6 27-02-2017 12:00 15.0 -- 17.6 2017-02-27 12:22:00
2 2017-02-28 12:00:00 Temperatura 13.7 del 28-02-2017 09:00, Menor que la Mínima 17.3 28-02-2017 12:00 13.7 -- 17.3 2017-02-28 12:37:00
2 2017-03-02 12:00:00 Temperatura 16.9 del 02-03-2017 10:00, Menor que la Mínima 17.6 02-03-2017 12:00 16.9 -- 17.6 2017-03-02 12:22:00
2 2017-03-03 12:00:00 Temperatura 14.9 del 03-03-2017 04:00, Menor que la Mínima 17.8 03-03-2017 12:00 14.9 -- 17.8 2017-03-03 12:22:00
2 2017-03-04 12:00:00 Temperatura 8.8 del 04-03-2017 10:00, Menor que la Mínima 17.0 04-03-2017 12:00 8.8 -- 17.0 2017-03-04 12:22:00
2 2017-03-05 12:00:00 Temperatura 9.9 del 05-03-2017 05:00, Menor que la Mínima 13.1 05-03-2017 12:00 9.9 -- 13.1 2017-03-05 12:37:00
2 2017-03-06 12:00:00 Temperatura 7.5 del 06-03-2017 09:00, Menor que la Mínima 16.0 06-03-2017 12:00 7.5 -- 16.0 2017-03-06 12:22:00
2 2017-03-07 12:00:00 Temperatura 7.4 del 07-03-2017 11:00, Menor que la Mínima 16.3 07-03-2017 12:00 7.4 -- 16.3 2017-03-07 12:22:00
2 2017-03-08 12:00:00 Temperatura 4.6 del 08-03-2017 10:00, Menor que la Mínima 12.1 08-03-2017 12:00 4.6 -- 12.1 2017-03-08 12:22:00
2 2017-03-10 12:00:00 Temperatura 10.6 del 10-03-2017 11:00, Menor que la Mínima 13.1 10-03-2017 12:00 10.6 -- 13.1 2017-03-10 12:22:00
2 2017-03-11 12:00:00 Temperatura 8.7 del 11-03-2017 10:00, Menor que la Mínima 14.6 11-03-2017 12:00 8.7 -- 14.6 2017-03-11 12:22:00
2 2017-03-12 12:00:00 Temperatura 11.3 del 12-03-2017 11:00, Menor que la Mínima 14.6 12-03-2017 12:00 11.3 -- 14.6 2017-03-12 12:22:00
2 2017-03-13 12:00:00 Temperatura 9.7 del 13-03-2017 11:00, Menor que la Mínima 16.1 13-03-2017 12:00 9.7 -- 16.1 2017-03-13 12:22:00
2 2017-03-14 12:00:00 Temperatura 12.4 del 14-03-2017 04:00, Menor que la Mínima 14.8 14-03-2017 12:00 12.4 -- 14.8 2017-03-14 12:22:00
2 2017-03-15 12:00:00 Temperatura 8.7 del 15-03-2017 11:00, Menor que la Mínima 16.1 15-03-2017 12:00 8.7 -- 16.1 2017-03-15 12:22:00
2 2017-03-16 12:00:00 Temperatura 7.0 del 16-03-2017 11:00, Menor que la Mínima 12.7 16-03-2017 12:00 7.0 -- 12.7 2017-03-16 12:22:00
2 2017-03-17 12:00:00 Temperatura 11.5 del 17-03-2017 04:00, Menor que la Mínima 11.8 17-03-2017 12:00 11.5 -- 11.8 2017-03-17 12:22:00
2 2017-03-18 12:00:00 Temperatura 8.9 del 18-03-2017 09:00, Menor que la Mínima 11.8 18-03-2017 12:00 8.9 -- 11.8 2017-03-18 12:22:00
2 2017-03-19 12:00:00 Temperatura 9.7 del 19-03-2017 09:00, Menor que la Mínima 11.4 19-03-2017 12:00 9.7 -- 11.4 2017-03-19 12:37:00
2 2017-03-20 12:00:00 Temperatura 7.8 del 20-03-2017 11:00, Menor que la Mínima 12.5 20-03-2017 12:00 7.8 -- 12.5 2017-03-20 12:22:00
2 2017-03-21 12:00:00 Temperatura 8.1 del 21-03-2017 11:00, Menor que la Mínima 12.0 21-03-2017 12:00 8.1 -- 12.0 2017-03-21 12:22:00
2 2017-03-22 12:00:00 Temperatura 10.6 del 22-03-2017 06:00, Menor que la Mínima 12.8 22-03-2017 12:00 10.6 -- 12.8 2017-03-22 12:22:00
2 2017-03-25 12:00:00 Temperatura 8.3 del 25-03-2017 10:00, Menor que la Mínima 16.3 25-03-2017 12:00 8.3 -- 16.3 2017-03-25 12:22:00
2 2017-03-26 12:00:00 Temperatura 8.2 del 26-03-2017 10:00, Menor que la Mínima 13.3 26-03-2017 12:00 8.2 -- 13.3 2017-03-26 12:37:00
2 2017-03-28 12:00:00 Temperatura 7.2 del 28-03-2017 10:00, Menor que la Mínima 13.3 28-03-2017 12:00 7.2 -- 13.3 2017-03-28 12:22:00
2 2017-03-29 12:00:00 Temperatura 7.7 del 29-03-2017 09:00, Menor que la Mínima 11.1 29-03-2017 12:00 7.7 -- 11.1 2017-03-29 12:22:00
2 2017-03-30 12:00:00 Temperatura 6.3 del 30-03-2017 11:00, Menor que la Mínima 9.3 30-03-2017 12:00 6.3 -- 9.3 2017-03-30 12:22:00
2 2017-03-31 12:00:00 Temperatura 5.8 del 31-03-2017 11:00, Menor que la Mínima 9.8 31-03-2017 12:00 5.8 -- 9.8 2017-03-31 12:22:00
2 2017-04-02 12:00:00 Temperatura 5.7 del 02-04-2017 08:00, Menor que la Mínima 12.4 02-04-2017 12:00 5.7 -- 12.4 2017-04-02 12:22:00
2 2017-04-04 12:00:00 Temperatura 8.9 del 04-04-2017 11:00, Menor que la Mínima 11.2 04-04-2017 12:00 8.9 -- 11.2 2017-04-04 12:22:00
2 2017-04-05 12:00:00 Temperatura 6.0 del 05-04-2017 11:00, Menor que la Mínima 9.6 05-04-2017 12:00 6.0 -- 9.6 2017-04-05 12:22:00
2 2017-04-06 12:00:00 Temperatura 7.1 del 06-04-2017 11:00, Menor que la Mínima 9.5 06-04-2017 12:00 7.1 -- 9.5 2017-04-06 12:22:00
2 2017-04-08 12:00:00 Temperatura 7.2 del 08-04-2017 11:00, Menor que la Mínima 11.6 08-04-2017 12:00 7.2 -- 11.6 2017-04-08 12:22:00
2 2017-04-09 12:00:00 Temperatura 4.8 del 09-04-2017 11:00, Menor que la Mínima 7.6 09-04-2017 12:00 4.8 -- 7.6 2017-04-09 12:37:00
2 2017-04-10 12:00:00 Temperatura 4.0 del 10-04-2017 11:00, Menor que la Mínima 7.1 10-04-2017 12:00 4.0 -- 7.1 2017-04-10 12:37:00
2 2017-04-11 12:00:00 Temperatura 5.6 del 11-04-2017 11:00, Menor que la Mínima 5.9 11-04-2017 12:00 5.6 -- 5.9 2017-04-11 12:22:00
2 2017-04-13 12:00:00 Temperatura 8.1 del 13-04-2017 08:00, Menor que la Mínima 11.0 13-04-2017 12:00 8.1 -- 11.0 2017-04-13 12:22:00
2 2017-04-14 12:00:00 Temperatura 7.6 del 14-04-2017 09:00, Menor que la Mínima 10.1 14-04-2017 12:00 7.6 -- 10.1 2017-04-14 12:22:00
2 2017-04-15 12:00:00 Temperatura 5.3 del 15-04-2017 11:00, Menor que la Mínima 10.6 15-04-2017 12:00 5.3 -- 10.6 2017-04-15 12:22:00
2 2017-04-17 12:00:00 Temperatura 9.2 del 17-04-2017 04:00, Menor que la Mínima 9.7 17-04-2017 12:00 9.2 -- 9.7 2017-04-17 12:22:00
2 2017-04-18 12:00:00 Temperatura 10.6 del 18-04-2017 08:00, Menor que la Mínima 12.0 18-04-2017 12:00 10.6 -- 12.0 2017-04-18 12:22:00
2 2017-04-20 12:00:00 Temperatura 14.3 del 20-04-2017 09:00, Menor que la Mínima 14.4 20-04-2017 12:00 14.3 -- 14.4 2017-04-20 12:37:00
2 2017-04-21 12:00:00 Temperatura 7.6 del 21-04-2017 06:00, Menor que la Mínima 13.7 21-04-2017 12:00 7.6 -- 13.7 2017-04-21 12:22:00
2 2017-04-22 12:00:00 Temperatura 6.5 del 22-04-2017 11:00, Menor que la Mínima 9.0 22-04-2017 12:00 6.5 -- 9.0 2017-04-22 12:22:00
2 2017-04-23 12:00:00 Temperatura 5.4 del 23-04-2017 09:00, Menor que la Mínima 8.3 23-04-2017 12:00 5.4 -- 8.3 2017-04-23 12:22:00
2 2017-04-24 12:00:00 Temperatura 3.0 del 24-04-2017 10:00, Menor que la Mínima 7.8 24-04-2017 12:00 3.0 -- 7.8 2017-04-24 12:37:00
2 2017-04-26 12:00:00 Temperatura 3.6 del 26-04-2017 10:00, Menor que la Mínima 6.7 26-04-2017 12:00 3.6 -- 6.7 2017-04-26 12:22:00
2 2017-04-27 12:00:00 Temperatura 4.4 del 27-04-2017 11:00, Menor que la Mínima 5.0 27-04-2017 12:00 4.4 -- 5.0 2017-04-27 12:22:00
2 2017-04-29 12:00:00 Temperatura 7.3 del 29-04-2017 11:00, Menor que la Mínima 8.4 29-04-2017 12:00 7.3 -- 8.4 2017-04-29 12:22:00
2 2017-04-30 12:00:00 Temperatura 4.5 del 30-04-2017 11:00, Menor que la Mínima 11.7 30-04-2017 12:00 4.5 -- 11.7 2017-04-30 12:37:00
2 2017-05-02 12:00:00 Temperatura 6.7 del 02-05-2017 09:00, Menor que la Mínima 10.5 02-05-2017 12:00 6.7 -- 10.5 2017-05-02 12:22:00
2 2017-05-03 12:00:00 Temperatura 8.1 del 03-05-2017 06:00, Menor que la Mínima 8.4 03-05-2017 12:00 8.1 -- 8.4 2017-05-03 12:22:00
2 2017-05-04 12:00:00 Temperatura 2.5 del 04-05-2017 10:00, Menor que la Mínima 8.9 04-05-2017 12:00 2.5 -- 8.9 2017-05-04 12:37:00
2 2017-05-07 12:00:00 Temperatura 13.1 del 07-05-2017 07:00, Menor que la Mínima 13.6 07-05-2017 12:00 13.1 -- 13.6 2017-05-08 14:22:00
2 2017-05-08 12:00:00 Temperatura 11.0 del 08-05-2017 12:00, Menor que la Mínima 13.4 08-05-2017 12:00 11.0 -- 13.4 2017-05-08 14:22:00
2 2017-05-09 12:00:00 Temperatura 8.5 del 09-05-2017 12:00, Menor que la Mínima 10.8 09-05-2017 12:00 8.5 -- 10.8 2017-05-09 12:37:00
2 2017-05-12 12:00:00 Temperatura 10.4 del 12-05-2017 12:00, Menor que la Mínima 12.9 12-05-2017 12:00 10.4 -- 12.9 2017-05-12 12:22:00
2 2017-05-14 12:00:00 Temperatura 13.9 del 14-05-2017 12:00, Menor que la Mínima 15.2 14-05-2017 12:00 13.9 -- 15.2 2017-05-14 12:37:00
2 2017-05-15 12:00:00 Temperatura 6.5 del 15-05-2017 11:00, Menor que la Mínima 13.5 15-05-2017 12:00 6.5 -- 13.5 2017-05-15 12:37:00
2 2017-05-18 12:00:00 Temperatura 7.2 del 18-05-2017 11:00, Menor que la Mínima 10.1 18-05-2017 12:00 7.2 -- 10.1 2017-05-18 12:22:00
2 2017-05-19 12:00:00 Temperatura 3.3 del 19-05-2017 11:00, Menor que la Mínima 7.2 19-05-2017 12:00 3.3 -- 7.2 2017-05-19 12:22:00
2 2017-05-20 12:00:00 Temperatura 1.0 del 20-05-2017 12:00, Menor que la Mínima 3.4 20-05-2017 12:00 1.0 -- 3.4 2017-05-20 12:22:00
2 2017-05-23 12:00:00 Temperatura 3.7 del 23-05-2017 12:00, Menor que la Mínima 7.8 23-05-2017 12:00 3.7 -- 7.8 2017-05-23 12:22:00
2 2017-05-24 12:00:00 Temperatura 1.1 del 24-05-2017 10:00, Menor que la Mínima 3.4 24-05-2017 12:00 1.1 -- 3.4 2017-05-24 12:22:00
2 2017-05-29 12:00:00 Temperatura 2.7 del 29-05-2017 12:00, Menor que la Mínima 2.9 29-05-2017 12:00 2.7 -- 2.9 2017-05-29 12:37:00
2 2017-05-30 12:00:00 Temperatura 0.3 del 30-05-2017 11:00, Menor que la Mínima 2.6 30-05-2017 12:00 0.3 -- 2.6 2017-05-30 12:37:00
2 2017-05-31 12:00:00 Temperatura -0.5 del 31-05-2017 12:00, Menor que la Mínima 0.4 31-05-2017 12:00 -0.5 -- 0.4 2017-05-31 12:37:00
2 2017-06-02 12:00:00 Temperatura 3.5 del 02-06-2017 08:00, Menor que la Mínima 5.7 02-06-2017 12:00 3.5 -- 5.7 2017-06-02 12:37:00
2 2017-06-03 12:00:00 Temperatura 2.8 del 03-06-2017 07:00, Menor que la Mínima 6.3 03-06-2017 12:00 2.8 -- 6.3 2017-06-03 12:37:00
2 2017-06-04 12:00:00 Temperatura 1.1 del 04-06-2017 10:00, Menor que la Mínima 3.8 04-06-2017 12:00 1.1 -- 3.8 2017-06-04 12:37:00
2 2017-06-05 12:00:00 Temperatura 0.0 del 05-06-2017 12:00, Menor que la Mínima 1.7 05-06-2017 12:00 0.0 -- 1.7 2017-06-05 12:37:00
2 2017-06-06 12:00:00 Temperatura -3.2 del 06-06-2017 12:00, Menor que la Mínima -0.4 06-06-2017 12:00 -3.2 -- -0.4 2017-06-06 12:22:00
2 2017-06-09 12:00:00 Temperatura 1.7 del 09-06-2017 11:00, Menor que la Mínima 4.4 09-06-2017 12:00 1.7 -- 4.4 2017-06-09 12:22:00
2 2017-06-12 12:00:00 Temperatura -1.4 del 12-06-2017 12:00, Menor que la Mínima 3.8 12-06-2017 12:00 -1.4 -- 3.8 2017-06-12 12:37:00
2 2017-06-15 12:00:00 Temperatura 4.7 del 15-06-2017 11:00, Menor que la Mínima 11.0 15-06-2017 12:00 4.7 -- 11.0 2017-06-15 12:22:00
2 2017-06-17 12:00:00 Temperatura 3.0 del 17-06-2017 12:00, Menor que la Mínima 12.1 17-06-2017 12:00 3.0 -- 12.1 2017-06-17 12:22:00
2 2017-06-18 12:00:00 Temperatura -0.6 del 18-06-2017 08:00, Menor que la Mínima 2.9 18-06-2017 12:00 -0.6 -- 2.9 2017-06-18 12:37:00
2 2017-06-19 12:00:00 Temperatura -2.5 del 19-06-2017 12:00, Menor que la Mínima 0.4 19-06-2017 12:00 -2.5 -- 0.4 2017-06-19 14:22:00
2 2017-06-23 12:00:00 Temperatura 11.3 del 23-06-2017 12:00, Menor que la Mínima 11.6 23-06-2017 12:00 11.3 -- 11.6 2017-06-23 12:22:00
2 2017-06-24 12:00:00 Temperatura 11.1 del 24-06-2017 03:00, Menor que la Mínima 11.3 24-06-2017 12:00 11.1 -- 11.3 2017-06-24 12:22:00
2 2017-12-13 12:00:00 Temperatura 13.5 del 13-12-2017 07:00, Menor que la Mínima 17.2 13-12-2017 12:00 13.5 -- 17.2 2017-12-13 12:22:00
2 2017-12-14 12:00:00 Temperatura 8.6 del 14-12-2017 08:00, Menor que la Mínima 17.2 14-12-2017 12:00 8.6 -- 17.2 2017-12-14 12:22:00
2 2017-12-15 12:00:00 Temperatura 14.1 del 15-12-2017 04:00, Menor que la Mínima 20.2 15-12-2017 12:00 14.1 -- 20.2 2017-12-15 12:22:00
2 2017-12-16 12:00:00 Temperatura 9.4 del 16-12-2017 08:00, Menor que la Mínima 19.7 16-12-2017 12:00 9.4 -- 19.7 2017-12-16 12:22:00
2 2017-12-17 12:00:00 Temperatura 12.0 del 17-12-2017 09:00, Menor que la Mínima 14.8 17-12-2017 12:00 12.0 -- 14.8 2017-12-17 12:22:00
2 2017-12-18 12:00:00 Temperatura 6.7 del 18-12-2017 09:00, Menor que la Mínima 17.4 18-12-2017 12:00 6.7 -- 17.4 2017-12-18 12:22:00
2 2017-12-19 12:00:00 Temperatura 7.0 del 19-12-2017 08:00, Menor que la Mínima 16.1 19-12-2017 12:00 7.0 -- 16.1 2017-12-19 12:22:00
2 2017-12-20 12:00:00 Temperatura 7.7 del 20-12-2017 09:00, Menor que la Mínima 15.9 20-12-2017 12:00 7.7 -- 15.9 2017-12-20 12:22:00
2 2017-12-21 12:00:00 Temperatura 11.7 del 21-12-2017 09:00, Menor que la Mínima 15.6 21-12-2017 12:00 11.7 -- 15.6 2017-12-21 12:22:00
2 2017-12-22 12:00:00 Temperatura 6.6 del 22-12-2017 09:00, Menor que la Mínima 17.5 22-12-2017 12:00 6.6 -- 17.5 2017-12-22 12:22:00
2 2017-12-23 12:00:00 Temperatura 12.1 del 23-12-2017 04:00, Menor que la Mínima 17.8 23-12-2017 12:00 12.1 -- 17.8 2017-12-23 12:22:00
2 2017-12-24 12:00:00 Temperatura 5.1 del 24-12-2017 09:00, Menor que la Mínima 16.3 24-12-2017 12:00 5.1 -- 16.3 2017-12-24 12:22:00
2 2017-12-25 12:00:00 Temperatura 8.5 del 25-12-2017 09:00, Menor que la Mínima 15.5 25-12-2017 12:00 8.5 -- 15.5 2017-12-25 12:22:00
2 2017-12-26 12:00:00 Temperatura 10.4 del 26-12-2017 10:00, Menor que la Mínima 15.1 26-12-2017 12:00 10.4 -- 15.1 2017-12-26 12:22:00
2 2017-12-27 12:00:00 Temperatura 11.6 del 27-12-2017 09:00, Menor que la Mínima 16.9 27-12-2017 12:00 11.6 -- 16.9 2017-12-27 12:22:00
2 2017-12-28 12:00:00 Temperatura 9.1 del 28-12-2017 10:00, Menor que la Mínima 19.1 28-12-2017 12:00 9.1 -- 19.1 2017-12-28 12:22:00
2 2017-12-29 12:00:00 Temperatura 12.0 del 29-12-2017 09:00, Menor que la Mínima 18.2 29-12-2017 12:00 12.0 -- 18.2 2017-12-29 12:22:00
2 2017-12-30 12:00:00 Temperatura 10.7 del 30-12-2017 09:00, Menor que la Mínima 19.4 30-12-2017 12:00 10.7 -- 19.4 2017-12-30 12:22:00
2 2017-12-31 12:00:00 Temperatura 16.2 del 31-12-2017 06:00, Menor que la Mínima 18.9 31-12-2017 12:00 16.2 -- 18.9 2017-12-31 12:22:00
2 2018-01-02 12:00:00 Temperatura 7.8 del 02-01-2018 10:00, Menor que la Mínima 15.2 02-01-2018 12:00 7.8 -- 15.2 2018-01-02 12:22:00
2 2018-01-03 12:00:00 Temperatura 8.9 del 03-01-2018 10:00, Menor que la Mínima 13.7 03-01-2018 12:00 8.9 -- 13.7 2018-01-03 12:22:00
2 2018-01-04 12:00:00 Temperatura 12.0 del 04-01-2018 10:00, Menor que la Mínima 17.8 04-01-2018 12:00 12.0 -- 17.8 2018-01-04 12:22:00
2 2018-01-05 12:00:00 Temperatura 11.7 del 05-01-2018 09:00, Menor que la Mínima 17.1 05-01-2018 12:00 11.7 -- 17.1 2018-01-05 13:22:00
2 2018-01-06 12:00:00 Temperatura 14.9 del 06-01-2018 08:00, Menor que la Mínima 17.8 06-01-2018 12:00 14.9 -- 17.8 2018-01-06 12:22:00
2 2018-01-07 12:00:00 Temperatura 18.0 del 07-01-2018 10:00, Menor que la Mínima 20.0 07-01-2018 12:00 18.0 -- 20.0 2018-01-07 12:22:00
2 2018-01-08 12:00:00 Temperatura 13.8 del 08-01-2018 07:00, Menor que la Mínima 19.2 08-01-2018 12:00 13.8 -- 19.2 2018-01-08 12:22:00
2 2018-01-09 12:00:00 Temperatura 12.7 del 09-01-2018 08:00, Menor que la Mínima 17.5 09-01-2018 12:00 12.7 -- 17.5 2018-01-09 12:22:00
2 2018-01-10 12:00:00 Temperatura 11.7 del 10-01-2018 10:00, Menor que la Mínima 17.7 10-01-2018 12:00 11.7 -- 17.7 2018-01-10 12:22:00
2 2018-01-11 12:00:00 Temperatura 14.2 del 11-01-2018 08:00, Menor que la Mínima 16.5 11-01-2018 12:00 14.2 -- 16.5 2018-01-11 12:22:00
2 2018-01-12 12:00:00 Temperatura 12.7 del 12-01-2018 04:00, Menor que la Mínima 15.8 12-01-2018 12:00 12.7 -- 15.8 2018-01-12 12:22:00
2 2018-01-13 12:00:00 Temperatura 12.6 del 13-01-2018 08:00, Menor que la Mínima 15.7 13-01-2018 12:00 12.6 -- 15.7 2018-01-13 12:22:00
2 2018-01-14 12:00:00 Temperatura 11.9 del 14-01-2018 07:00, Menor que la Mínima 16.0 14-01-2018 12:00 11.9 -- 16.0 2018-01-14 12:22:00
2 2018-01-16 12:00:00 Temperatura 11.2 del 16-01-2018 06:00, Menor que la Mínima 17.0 16-01-2018 12:00 11.2 -- 17.0 2018-01-16 12:22:00
2 2018-01-17 12:00:00 Temperatura 8.6 del 17-01-2018 10:00, Menor que la Mínima 16.3 17-01-2018 12:00 8.6 -- 16.3 2018-01-17 12:22:00
2 2018-01-18 12:00:00 Temperatura 9.7 del 18-01-2018 09:00, Menor que la Mínima 16.6 18-01-2018 12:00 9.7 -- 16.6 2018-01-18 12:22:00
2 2018-01-19 12:00:00 Temperatura 11.4 del 19-01-2018 10:00, Menor que la Mínima 19.8 19-01-2018 12:00 11.4 -- 19.8 2018-01-19 12:22:00
2 2018-01-20 12:00:00 Temperatura 15.0 del 20-01-2018 05:00, Menor que la Mínima 17.3 20-01-2018 12:00 15.0 -- 17.3 2018-01-20 12:22:00
2 2018-01-21 12:00:00 Temperatura 15.8 del 21-01-2018 04:00, Menor que la Mínima 17.2 21-01-2018 12:00 15.8 -- 17.2 2018-01-22 17:22:00
2 2018-01-22 12:00:00 Temperatura 16.4 del 22-01-2018 03:00, Menor que la Mínima 16.9 22-01-2018 12:00 16.4 -- 16.9 2018-01-22 17:37:00
2 2018-01-23 12:00:00 Temperatura 9.9 del 23-01-2018 10:00, Menor que la Mínima 17.4 23-01-2018 12:00 9.9 -- 17.4 2018-01-23 12:22:00
2 2018-01-24 12:00:00 Temperatura 9.5 del 24-01-2018 10:00, Menor que la Mínima 14.9 24-01-2018 12:00 9.5 -- 14.9 2018-01-24 12:22:00
2 2018-01-25 12:00:00 Temperatura 10.9 del 25-01-2018 06:00, Menor que la Mínima 15.0 25-01-2018 12:00 10.9 -- 15.0 2018-01-25 12:22:00
2 2018-01-26 12:00:00 Temperatura 10.2 del 26-01-2018 04:00, Menor que la Mínima 14.3 26-01-2018 12:00 10.2 -- 14.3 2018-01-26 12:22:00
2 2018-01-27 12:00:00 Temperatura 6.8 del 27-01-2018 10:00, Menor que la Mínima 13.8 27-01-2018 12:00 6.8 -- 13.8 2018-01-27 12:22:00
2 2018-01-28 12:00:00 Temperatura 10.2 del 28-01-2018 06:00, Menor que la Mínima 15.7 28-01-2018 12:00 10.2 -- 15.7 2018-01-28 12:22:00
2 2018-01-29 12:00:00 Temperatura 7.6 del 29-01-2018 10:00, Menor que la Mínima 19.1 29-01-2018 12:00 7.6 -- 19.1 2018-01-29 12:22:00
2 2018-01-30 12:00:00 Temperatura 12.1 del 30-01-2018 02:00, Menor que la Mínima 14.1 30-01-2018 12:00 12.1 -- 14.1 2018-01-30 12:22:00
2 2018-01-31 12:00:00 Temperatura 11.7 del 31-01-2018 05:00, Menor que la Mínima 15.3 31-01-2018 12:00 11.7 -- 15.3 2018-01-31 12:22:00
2 2018-02-02 12:00:00 Temperatura 12.5 del 02-02-2018 07:00, Menor que la Mínima 16.2 02-02-2018 12:00 12.5 -- 16.2 2018-02-02 12:22:00
2 2018-02-03 12:00:00 Temperatura 14.4 del 03-02-2018 04:00, Menor que la Mínima 15.7 03-02-2018 12:00 14.4 -- 15.7 2018-02-03 12:22:00
2 2018-02-04 12:00:00 Temperatura 13.3 del 04-02-2018 07:00, Menor que la Mínima 16.1 04-02-2018 12:00 13.3 -- 16.1 2018-02-04 12:22:00
2 2018-02-05 12:00:00 Temperatura 14.4 del 05-02-2018 04:00, Menor que la Mínima 15.2 05-02-2018 12:00 14.4 -- 15.2 2018-02-05 12:22:00
2 2018-02-06 12:00:00 Temperatura 15.1 del 06-02-2018 03:00, Menor que la Mínima 15.9 06-02-2018 12:00 15.1 -- 15.9 2018-02-06 12:22:00
2 2018-02-07 12:00:00 Temperatura 10.3 del 07-02-2018 09:00, Menor que la Mínima 16.6 07-02-2018 12:00 10.3 -- 16.6 2018-02-07 12:22:00
2 2018-02-08 12:00:00 Temperatura 9.8 del 08-02-2018 10:00, Menor que la Mínima 15.3 08-02-2018 12:00 9.8 -- 15.3 2018-02-08 12:22:00
2 2018-02-09 12:00:00 Temperatura 13.0 del 09-02-2018 05:00, Menor que la Mínima 14.0 09-02-2018 12:00 13.0 -- 14.0 2018-02-09 12:22:00
2 2018-02-10 12:00:00 Temperatura 13.2 del 10-02-2018 09:00, Menor que la Mínima 16.9 10-02-2018 12:00 13.2 -- 16.9 2018-02-10 12:22:00
2 2018-02-11 12:00:00 Temperatura 6.9 del 11-02-2018 10:00, Menor que la Mínima 16.0 11-02-2018 12:00 6.9 -- 16.0 2018-02-11 12:22:00
2 2018-02-12 12:00:00 Temperatura 7.5 del 12-02-2018 10:00, Menor que la Mínima 16.2 12-02-2018 12:00 7.5 -- 16.2 2018-02-12 12:22:00
2 2018-02-13 12:00:00 Temperatura 8.2 del 13-02-2018 10:00, Menor que la Mínima 15.4 13-02-2018 12:00 8.2 -- 15.4 2018-02-13 12:22:00
2 2018-02-14 12:00:00 Temperatura 11.4 del 14-02-2018 06:00, Menor que la Mínima 15.5 14-02-2018 12:00 11.4 -- 15.5 2018-02-14 12:22:00
2 2018-02-15 12:00:00 Temperatura 11.4 del 15-02-2018 07:00, Menor que la Mínima 14.8 15-02-2018 12:00 11.4 -- 14.8 2018-02-15 12:22:00
2 2018-02-16 12:00:00 Temperatura 13.1 del 16-02-2018 03:00, Menor que la Mínima 13.6 16-02-2018 12:00 13.1 -- 13.6 2018-02-16 12:22:00
2 2018-02-17 12:00:00 Temperatura 10.6 del 17-02-2018 08:00, Menor que la Mínima 14.2 17-02-2018 12:00 10.6 -- 14.2 2018-02-17 12:22:00
2 2018-02-19 12:00:00 Temperatura 10.3 del 19-02-2018 09:00, Menor que la Mínima 16.6 19-02-2018 12:00 10.3 -- 16.6 2018-02-19 12:22:00
2 2018-02-20 12:00:00 Temperatura 12.4 del 20-02-2018 05:00, Menor que la Mínima 13.6 20-02-2018 12:00 12.4 -- 13.6 2018-02-20 12:22:00
2 2018-02-21 12:00:00 Temperatura 11.4 del 21-02-2018 10:00, Menor que la Mínima 17.1 21-02-2018 12:00 11.4 -- 17.1 2018-02-21 12:22:00
2 2018-02-22 12:00:00 Temperatura 10.2 del 22-02-2018 10:00, Menor que la Mínima 17.0 22-02-2018 12:00 10.2 -- 17.0 2018-02-22 12:22:00
2 2018-02-23 12:00:00 Temperatura 14.1 del 23-02-2018 05:00, Menor que la Mínima 14.2 23-02-2018 12:00 14.1 -- 14.2 2018-02-23 12:22:00
2 2018-02-24 12:00:00 Temperatura 10.6 del 24-02-2018 08:00, Menor que la Mínima 16.4 24-02-2018 12:00 10.6 -- 16.4 2018-02-24 12:22:00
2 2018-02-25 12:00:00 Temperatura 11.8 del 25-02-2018 03:00, Menor que la Mínima 14.1 25-02-2018 12:00 11.8 -- 14.1 2018-02-25 12:22:00
2 2018-02-26 12:00:00 Temperatura 13.6 del 26-02-2018 03:00, Menor que la Mínima 15.1 26-02-2018 12:00 13.6 -- 15.1 2018-02-26 12:22:00
2 2018-02-27 12:00:00 Temperatura 14.5 del 27-02-2018 08:00, Menor que la Mínima 14.6 27-02-2018 12:00 14.5 -- 14.6 2018-02-27 12:22:00
2 2018-02-28 12:00:00 Temperatura 12.4 del 28-02-2018 04:00, Menor que la Mínima 15.9 28-02-2018 12:00 12.4 -- 15.9 2018-02-28 12:22:00
2 2018-03-02 12:00:00 Temperatura 11.1 del 02-03-2018 07:00, Menor que la Mínima 12.8 02-03-2018 12:00 11.1 -- 12.8 2018-03-02 12:22:00
2 2018-03-03 12:00:00 Temperatura 10.4 del 03-03-2018 07:00, Menor que la Mínima 13.1 03-03-2018 12:00 10.4 -- 13.1 2018-03-05 00:37:00
2 2018-03-04 12:00:00 Temperatura 9.3 del 04-03-2018 07:00, Menor que la Mínima 13.7 04-03-2018 12:00 9.3 -- 13.7 2018-03-05 00:37:00
2 2018-03-05 12:00:00 Temperatura 11.6 del 05-03-2018 11:00, Menor que la Mínima 12.4 05-03-2018 12:00 11.6 -- 12.4 2018-03-05 12:22:00
2 2018-03-06 12:00:00 Temperatura 6.5 del 06-03-2018 10:00, Menor que la Mínima 16.5 06-03-2018 12:00 6.5 -- 16.5 2018-03-06 12:22:00
2 2018-03-08 12:00:00 Temperatura 7.5 del 08-03-2018 11:00, Menor que la Mínima 15.3 08-03-2018 12:00 7.5 -- 15.3 2018-03-08 12:22:00
2 2018-03-09 12:00:00 Temperatura 8.1 del 09-03-2018 11:00, Menor que la Mínima 12.6 09-03-2018 12:00 8.1 -- 12.6 2018-03-09 12:22:00
2 2018-03-10 12:00:00 Temperatura 11.9 del 10-03-2018 11:00, Menor que la Mínima 12.1 10-03-2018 12:00 11.9 -- 12.1 2018-03-10 12:22:00
2 2018-03-11 12:00:00 Temperatura 9.8 del 11-03-2018 04:00, Menor que la Mínima 14.6 11-03-2018 12:00 9.8 -- 14.6 2018-03-11 12:22:00
2 2018-03-12 12:00:00 Temperatura 8.7 del 12-03-2018 07:00, Menor que la Mínima 15.3 12-03-2018 12:00 8.7 -- 15.3 2018-03-12 12:22:00
2 2018-03-13 12:00:00 Temperatura 10.8 del 13-03-2018 11:00, Menor que la Mínima 15.6 13-03-2018 12:00 10.8 -- 15.6 2018-03-13 12:22:00
2 2018-03-14 12:00:00 Temperatura 4.0 del 14-03-2018 11:00, Menor que la Mínima 13.8 14-03-2018 12:00 4.0 -- 13.8 2018-03-14 12:22:00
2 2018-03-15 12:00:00 Temperatura 7.0 del 15-03-2018 11:00, Menor que la Mínima 9.0 15-03-2018 12:00 7.0 -- 9.0 2018-03-15 12:22:00
2 2018-03-16 12:00:00 Temperatura 4.2 del 16-03-2018 11:00, Menor que la Mínima 12.7 16-03-2018 12:00 4.2 -- 12.7 2018-03-16 12:22:00
2 2018-03-18 12:00:00 Temperatura 9.8 del 18-03-2018 11:00, Menor que la Mínima 14.5 18-03-2018 12:00 9.8 -- 14.5 2018-03-18 12:22:00
2 2018-03-19 12:00:00 Temperatura 6.3 del 19-03-2018 11:00, Menor que la Mínima 10.4 19-03-2018 12:00 6.3 -- 10.4 2018-03-19 12:22:00
2 2018-03-20 12:00:00 Temperatura 5.7 del 20-03-2018 11:00, Menor que la Mínima 10.0 20-03-2018 12:00 5.7 -- 10.0 2018-03-20 12:22:00
2 2018-03-21 12:00:00 Temperatura 8.1 del 21-03-2018 09:00, Menor que la Mínima 9.7 21-03-2018 12:00 8.1 -- 9.7 2018-03-21 12:22:00
2 2018-03-22 12:00:00 Temperatura 7.5 del 22-03-2018 10:00, Menor que la Mínima 10.5 22-03-2018 12:00 7.5 -- 10.5 2018-03-22 12:22:00
2 2018-03-24 12:00:00 Temperatura 11.1 del 24-03-2018 05:00, Menor que la Mínima 15.8 24-03-2018 12:00 11.1 -- 15.8 2018-03-24 12:22:00
2 2018-03-25 12:00:00 Temperatura 6.3 del 25-03-2018 11:00, Menor que la Mínima 14.3 25-03-2018 12:00 6.3 -- 14.3 2018-03-25 12:22:00
2 2018-03-26 12:00:00 Temperatura 9.3 del 26-03-2018 08:00, Menor que la Mínima 12.2 26-03-2018 12:00 9.3 -- 12.2 2018-03-26 12:22:00
2 2018-03-27 12:00:00 Temperatura 5.2 del 27-03-2018 11:00, Menor que la Mínima 12.0 27-03-2018 12:00 5.2 -- 12.0 2018-03-27 12:22:00
2 2018-03-28 12:00:00 Temperatura 5.7 del 28-03-2018 11:00, Menor que la Mínima 9.0 28-03-2018 12:00 5.7 -- 9.0 2018-03-28 12:22:00
2 2018-03-29 12:00:00 Temperatura 8.5 del 29-03-2018 11:00, Menor que la Mínima 10.1 29-03-2018 12:00 8.5 -- 10.1 2018-03-29 12:22:00
2 2018-03-30 12:00:00 Temperatura 7.8 del 30-03-2018 09:00, Menor que la Mínima 13.6 30-03-2018 12:00 7.8 -- 13.6 2018-03-30 12:22:00
2 2018-03-31 12:00:00 Temperatura 8.1 del 31-03-2018 11:00, Menor que la Mínima 15.1 31-03-2018 12:00 8.1 -- 15.1 2018-03-31 12:22:00
2 2018-04-02 12:00:00 Temperatura 8.7 del 02-04-2018 05:00, Menor que la Mínima 9.6 02-04-2018 12:00 8.7 -- 9.6 2018-04-02 12:22:00
2 2018-04-04 12:00:00 Temperatura 10.5 del 04-04-2018 10:00, Menor que la Mínima 12.6 04-04-2018 12:00 10.5 -- 12.6 2018-04-04 12:22:00
2 2018-04-05 12:00:00 Temperatura 9.9 del 05-04-2018 09:00, Menor que la Mínima 10.5 05-04-2018 12:00 9.9 -- 10.5 2018-04-05 12:22:00
2 2018-04-06 12:00:00 Temperatura 9.2 del 06-04-2018 11:00, Menor que la Mínima 14.0 06-04-2018 12:00 9.2 -- 14.0 2018-04-06 12:22:00
2 2018-04-07 12:00:00 Temperatura 9.2 del 07-04-2018 10:00, Menor que la Mínima 9.3 07-04-2018 12:00 9.2 -- 9.3 2018-04-07 12:22:00
2 2018-04-08 12:00:00 Temperatura 2.9 del 08-04-2018 11:00, Menor que la Mínima 10.5 08-04-2018 12:00 2.9 -- 10.5 2018-04-08 12:22:00
2 2018-04-11 12:00:00 Temperatura 13.2 del 11-04-2018 02:00, Menor que la Mínima 13.8 11-04-2018 12:00 13.2 -- 13.8 2018-04-11 12:22:00
2 2018-04-12 12:00:00 Temperatura 6.0 del 12-04-2018 11:00, Menor que la Mínima 11.9 12-04-2018 12:00 6.0 -- 11.9 2018-04-12 12:22:00
2 2018-04-13 12:00:00 Temperatura 4.4 del 13-04-2018 10:00, Menor que la Mínima 9.0 13-04-2018 12:00 4.4 -- 9.0 2018-04-13 12:22:00
2 2018-04-14 12:00:00 Temperatura 4.6 del 14-04-2018 06:00, Menor que la Mínima 6.5 14-04-2018 12:00 4.6 -- 6.5 2018-04-14 12:22:00
2 2018-04-15 12:00:00 Temperatura 3.8 del 15-04-2018 11:00, Menor que la Mínima 6.4 15-04-2018 12:00 3.8 -- 6.4 2018-04-15 12:22:00
2 2018-04-17 12:00:00 Temperatura 9.4 del 17-04-2018 07:00, Menor que la Mínima 10.7 17-04-2018 12:00 9.4 -- 10.7 2018-04-17 12:22:00
2 2018-04-18 12:00:00 Temperatura 5.9 del 18-04-2018 08:00, Menor que la Mínima 12.2 18-04-2018 12:00 5.9 -- 12.2 2018-04-18 12:22:00
2 2018-04-19 12:00:00 Temperatura 3.1 del 19-04-2018 11:00, Menor que la Mínima 9.0 19-04-2018 12:00 3.1 -- 9.0 2018-04-19 12:22:00
2 2018-04-21 12:00:00 Temperatura 5.2 del 21-04-2018 11:00, Menor que la Mínima 7.3 21-04-2018 12:00 5.2 -- 7.3 2018-04-21 12:22:00
2 2018-04-24 12:00:00 Temperatura 3.6 del 24-04-2018 10:00, Menor que la Mínima 10.7 24-04-2018 12:00 3.6 -- 10.7 2018-04-24 12:22:00
2 2018-04-25 12:00:00 Temperatura 2.0 del 25-04-2018 11:00, Menor que la Mínima 4.6 25-04-2018 12:00 2.0 -- 4.6 2018-04-25 12:22:00
2 2018-04-28 12:00:00 Temperatura 6.6 del 28-04-2018 09:00, Menor que la Mínima 11.8 28-04-2018 12:00 6.6 -- 11.8 2018-04-28 12:37:00
2 2018-04-29 12:00:00 Temperatura 3.3 del 29-04-2018 07:00, Menor que la Mínima 7.0 29-04-2018 12:00 3.3 -- 7.0 2018-04-29 12:37:00
2 2018-04-30 12:00:00 Temperatura 2.4 del 30-04-2018 08:00, Menor que la Mínima 6.6 30-04-2018 12:00 2.4 -- 6.6 2018-04-30 12:37:00
2 2018-05-03 12:00:00 Temperatura 4.5 del 03-05-2018 09:00, Menor que la Mínima 10.6 03-05-2018 12:00 4.5 -- 10.6 2018-05-03 12:37:00
2 2018-05-05 12:00:00 Temperatura 5.5 del 05-05-2018 11:00, Menor que la Mínima 10.3 05-05-2018 12:00 5.5 -- 10.3 2018-05-05 12:37:00
2 2018-05-06 12:00:00 Temperatura 5.5 del 06-05-2018 11:00, Menor que la Mínima 6.2 06-05-2018 12:00 5.5 -- 6.2 2018-05-06 12:37:00
2 2018-05-08 12:00:00 Temperatura 8.8 del 08-05-2018 04:00, Menor que la Mínima 12.2 08-05-2018 12:00 8.8 -- 12.2 2018-05-08 12:37:00
2 2018-05-10 12:00:00 Temperatura 5.8 del 10-05-2018 09:00, Menor que la Mínima 9.6 10-05-2018 12:00 5.8 -- 9.6 2018-05-10 12:37:00
2 2018-05-11 12:00:00 Temperatura 4.0 del 11-05-2018 11:00, Menor que la Mínima 6.5 11-05-2018 12:00 4.0 -- 6.5 2018-05-11 12:22:00
2 2018-05-12 12:00:00 Temperatura 2.8 del 12-05-2018 12:00, Menor que la Mínima 4.1 12-05-2018 12:00 2.8 -- 4.1 2018-05-12 12:22:00
2 2018-05-15 12:00:00 Temperatura 9.3 del 15-05-2018 06:00, Menor que la Mínima 11.7 15-05-2018 12:00 9.3 -- 11.7 2018-05-15 12:22:00
2 2018-05-16 12:00:00 Temperatura 9.3 del 16-05-2018 10:00, Menor que la Mínima 10.3 16-05-2018 12:00 9.3 -- 10.3 2018-05-16 12:37:00
2 2018-05-17 12:00:00 Temperatura 7.7 del 17-05-2018 10:00, Menor que la Mínima 9.5 17-05-2018 12:00 7.7 -- 9.5 2018-05-17 12:37:00
2 2018-05-18 12:00:00 Temperatura 2.9 del 18-05-2018 11:00, Menor que la Mínima 8.4 18-05-2018 12:00 2.9 -- 8.4 2018-05-18 12:37:00
2 2018-05-19 12:00:00 Temperatura 1.9 del 19-05-2018 12:00, Menor que la Mínima 3.0 19-05-2018 12:00 1.9 -- 3.0 2018-05-22 15:16:00
2 2018-05-20 12:00:00 Temperatura 0.8 del 20-05-2018 10:00, Menor que la Mínima 1.9 20-05-2018 12:00 0.8 -- 1.9 2018-05-22 15:16:00
2 2018-05-22 12:00:00 Temperatura -0.7 del 22-05-2018 12:00, Menor que la Mínima 3.7 22-05-2018 12:00 -0.7 -- 3.7 2018-05-22 12:37:00
2 2018-05-23 12:00:00 Temperatura -3.7 del 23-05-2018 12:00, Menor que la Mínima -0.6 23-05-2018 12:00 -3.7 -- -0.6 2018-05-23 12:37:00
2 2018-05-27 12:00:00 Temperatura 4.9 del 27-05-2018 08:00, Menor que la Mínima 9.6 27-05-2018 12:00 4.9 -- 9.6 2018-05-27 12:37:00
2 2018-05-30 12:00:00 Temperatura 5.2 del 30-05-2018 11:00, Menor que la Mínima 10.6 30-05-2018 12:00 5.2 -- 10.6 2018-05-30 12:37:00
2 2018-05-31 12:00:00 Temperatura -0.2 del 31-05-2018 09:00, Menor que la Mínima 5.2 31-05-2018 12:00 -0.2 -- 5.2 2018-05-31 12:37:00
2 2018-06-01 12:00:00 Temperatura -0.6 del 01-06-2018 07:00, Menor que la Mínima 0.9 01-06-2018 12:00 -0.6 -- 0.9 2018-06-01 12:37:00
2 2018-06-02 12:00:00 Temperatura -1.3 del 02-06-2018 05:00, Menor que la Mínima 0.1 02-06-2018 12:00 -1.3 -- 0.1 2018-06-02 12:37:00
2 2018-06-04 12:00:00 Temperatura -2.3 del 04-06-2018 12:00, Menor que la Mínima 2.6 04-06-2018 12:00 -2.3 -- 2.6 2018-06-04 12:37:00
2 2018-06-05 12:00:00 Temperatura -3.8 del 05-06-2018 10:00, Menor que la Mínima -2.3 05-06-2018 12:00 -3.8 -- -2.3 2018-06-05 12:37:00
2 2018-06-07 12:00:00 Temperatura -0.6 del 07-06-2018 10:00, Menor que la Mínima 7.1 07-06-2018 12:00 -0.6 -- 7.1 2018-06-07 12:22:00
2 2018-06-10 12:00:00 Temperatura 9.1 del 10-06-2018 10:00, Menor que la Mínima 10.4 10-06-2018 12:00 9.1 -- 10.4 2018-06-10 12:22:00
2 2018-06-11 12:00:00 Temperatura 4.9 del 11-06-2018 12:00, Menor que la Mínima 7.8 11-06-2018 12:00 4.9 -- 7.8 2018-06-11 12:22:00
2 2018-06-12 12:00:00 Temperatura -0.6 del 12-06-2018 12:00, Menor que la Mínima 4.6 12-06-2018 12:00 -0.6 -- 4.6 2018-06-12 12:22:00
2 2018-06-13 12:00:00 Temperatura -1.3 del 13-06-2018 11:00, Menor que la Mínima -0.7 13-06-2018 12:00 -1.3 -- -0.7 2018-06-13 12:22:00
2 2018-06-14 12:00:00 Temperatura -2.7 del 14-06-2018 12:00, Menor que la Mínima -1.3 14-06-2018 12:00 -2.7 -- -1.3 2018-06-14 12:22:00
2 2018-06-16 12:00:00 Temperatura 0.9 del 16-06-2018 09:00, Menor que la Mínima 5.2 16-06-2018 12:00 0.9 -- 5.2 2018-06-16 12:22:00
2 2018-06-17 12:00:00 Temperatura 0.8 del 17-06-2018 12:00, Menor que la Mínima 1.3 17-06-2018 12:00 0.8 -- 1.3 2018-06-17 12:22:00
2 2018-06-20 12:00:00 Temperatura 3.8 del 20-06-2018 04:00, Menor que la Mínima 6.9 20-06-2018 12:00 3.8 -- 6.9 2018-06-20 12:22:00
2 2018-06-21 12:00:00 Temperatura 0.7 del 21-06-2018 10:00, Menor que la Mínima 7.4 21-06-2018 12:00 0.7 -- 7.4 2018-06-21 12:22:00
2 2018-06-23 12:00:00 Temperatura -1.3 del 23-06-2018 12:00, Menor que la Mínima 1.4 23-06-2018 12:00 -1.3 -- 1.4 2018-06-23 12:22:00
2 2018-06-27 12:00:00 Temperatura 4.6 del 27-06-2018 09:00, Menor que la Mínima 5.7 27-06-2018 12:00 4.6 -- 5.7 2018-06-27 12:22:00
2 2018-06-28 12:00:00 Temperatura 4.7 del 28-06-2018 12:00, Menor que la Mínima 5.7 28-06-2018 12:00 4.7 -- 5.7 2018-06-28 12:22:00
2 2018-06-29 12:00:00 Temperatura 4.5 del 29-06-2018 09:00, Menor que la Mínima 4.7 29-06-2018 12:00 4.5 -- 4.7 2018-06-29 12:22:00
2 2018-06-30 12:00:00 Temperatura 5.1 del 30-06-2018 04:00, Menor que la Mínima 6.6 30-06-2018 12:00 5.1 -- 6.6 2018-06-30 12:37:00
2 2018-07-03 12:00:00 Temperatura 9.1 del 03-07-2018 04:00, Menor que la Mínima 9.8 03-07-2018 12:00 9.1 -- 9.8 2018-07-03 13:24:00
2 2018-07-07 12:00:00 Temperatura 9.2 del 07-07-2018 12:00, Menor que la Mínima 11.5 07-07-2018 12:00 9.2 -- 11.5 2018-07-07 12:37:00
2 2018-07-08 12:00:00 Temperatura 5.7 del 08-07-2018 12:00, Menor que la Mínima 8.6 08-07-2018 12:00 5.7 -- 8.6 2018-07-08 12:37:00
2 2018-07-09 12:00:00 Temperatura 0.4 del 09-07-2018 12:00, Menor que la Mínima 5.1 09-07-2018 12:00 0.4 -- 5.1 2018-07-09 12:37:00
2 2018-07-12 12:00:00 Temperatura 2.4 del 12-07-2018 12:00, Menor que la Mínima 7.2 12-07-2018 12:00 2.4 -- 7.2 2018-07-12 12:37:00
2 2018-07-15 12:00:00 Temperatura 5.8 del 15-07-2018 12:00, Menor que la Mínima 11.0 15-07-2018 12:00 5.8 -- 11.0 2018-07-15 12:37:00
2 2018-07-16 12:00:00 Temperatura 3.1 del 16-07-2018 09:00, Menor que la Mínima 5.7 16-07-2018 12:00 3.1 -- 5.7 2018-07-16 12:37:00
2 2018-07-17 12:00:00 Temperatura 0.8 del 17-07-2018 12:00, Menor que la Mínima 5.0 17-07-2018 12:00 0.8 -- 5.0 2018-07-17 12:37:00
2 2018-07-18 12:00:00 Temperatura -2.8 del 18-07-2018 09:00, Menor que la Mínima 0.9 18-07-2018 12:00 -2.8 -- 0.9 2018-07-18 12:37:00
2 2018-07-19 12:00:00 Temperatura -4.3 del 19-07-2018 12:00, Menor que la Mínima -1.7 19-07-2018 12:00 -4.3 -- -1.7 2018-07-19 12:37:00
2 2018-07-20 12:00:00 Temperatura -5.0 del 20-07-2018 12:00, Menor que la Mínima -4.5 20-07-2018 12:00 -5.0 -- -4.5 2018-07-20 12:37:00
2 2018-07-23 12:00:00 Temperatura -2.9 del 23-07-2018 12:00, Menor que la Mínima 1.1 23-07-2018 12:00 -2.9 -- 1.1 2018-07-23 12:37:00
2 2018-07-24 12:00:00 Temperatura -4.3 del 24-07-2018 12:00, Menor que la Mínima -3.3 24-07-2018 12:00 -4.3 -- -3.3 2018-07-24 12:37:00
2 2018-07-28 12:00:00 Temperatura 0.3 del 28-07-2018 11:00, Menor que la Mínima 8.2 28-07-2018 12:00 0.3 -- 8.2 2018-07-28 12:37:00
2 2018-07-30 12:00:00 Temperatura -1.9 del 30-07-2018 11:00, Menor que la Mínima 1.6 30-07-2018 12:00 -1.9 -- 1.6 2018-07-30 12:37:00
2 2018-07-31 12:00:00 Temperatura -1.8 del 31-07-2018 11:00, Menor que la Mínima -1.7 31-07-2018 12:00 -1.8 -- -1.7 2018-07-31 12:37:00
2 2018-08-04 12:00:00 Temperatura 0.1 del 04-08-2018 10:00, Menor que la Mínima 5.1 04-08-2018 12:00 0.1 -- 5.1 2018-08-04 12:37:00
2 2018-08-08 12:00:00 Temperatura -0.1 del 08-08-2018 12:00, Menor que la Mínima 6.9 08-08-2018 12:00 -0.1 -- 6.9 2018-08-08 12:37:00
2 2018-08-10 12:00:00 Temperatura 0.3 del 10-08-2018 11:00, Menor que la Mínima 2.6 10-08-2018 12:00 0.3 -- 2.6 2018-08-10 12:37:00
2 2018-08-12 12:00:00 Temperatura 2.3 del 12-08-2018 09:00, Menor que la Mínima 3.1 12-08-2018 12:00 2.3 -- 3.1 2018-08-12 12:37:00
2 2018-08-14 12:00:00 Temperatura 2.9 del 14-08-2018 12:00, Menor que la Mínima 9.3 14-08-2018 12:00 2.9 -- 9.3 2018-08-14 12:37:00
2 2018-08-15 12:00:00 Temperatura 1.4 del 15-08-2018 11:00, Menor que la Mínima 2.8 15-08-2018 12:00 1.4 -- 2.8 2018-08-15 12:37:00
2 2018-08-19 12:00:00 Temperatura -1.2 del 19-08-2018 12:00, Menor que la Mínima 7.8 19-08-2018 12:00 -1.2 -- 7.8 2018-08-19 12:22:00
2 2018-08-20 12:00:00 Temperatura -2.1 del 20-08-2018 11:00, Menor que la Mínima -1.1 20-08-2018 12:00 -2.1 -- -1.1 2018-08-20 12:22:00
2 2018-08-24 12:00:00 Temperatura 0.1 del 24-08-2018 10:00, Menor que la Mínima 5.8 24-08-2018 12:00 0.1 -- 5.8 2018-08-24 12:22:00
2 2018-08-26 12:00:00 Temperatura 7.6 del 26-08-2018 12:00, Menor que la Mínima 8.0 26-08-2018 12:00 7.6 -- 8.0 2018-08-26 12:22:00
2 2018-08-27 12:00:00 Temperatura 5.8 del 27-08-2018 04:00, Menor que la Mínima 7.7 27-08-2018 12:00 5.8 -- 7.7 2018-08-27 12:22:00
2 2018-08-28 12:00:00 Temperatura 7.1 del 28-08-2018 01:00, Menor que la Mínima 7.3 28-08-2018 12:00 7.1 -- 7.3 2018-08-28 12:22:00
2 2018-08-29 12:00:00 Temperatura 4.1 del 29-08-2018 06:00, Menor que la Mínima 7.0 29-08-2018 12:00 4.1 -- 7.0 2018-08-29 12:37:00
2 2018-08-31 12:00:00 Temperatura 7.2 del 31-08-2018 04:00, Menor que la Mínima 8.6 31-08-2018 12:00 7.2 -- 8.6 2018-08-31 12:22:00
2 2018-09-02 12:00:00 Temperatura 3.2 del 02-09-2018 07:00, Menor que la Mínima 5.7 02-09-2018 12:00 3.2 -- 5.7 2018-09-02 12:37:00
2 2018-09-04 12:00:00 Temperatura 6.0 del 04-09-2018 11:00, Menor que la Mínima 10.1 04-09-2018 12:00 6.0 -- 10.1 2018-09-04 12:37:00
2 2018-09-05 12:00:00 Temperatura 6.9 del 05-09-2018 03:00, Menor que la Mínima 8.5 05-09-2018 12:00 6.9 -- 8.5 2018-09-05 12:37:00
2 2018-09-06 12:00:00 Temperatura 4.7 del 06-09-2018 12:00, Menor que la Mínima 8.3 06-09-2018 12:00 4.7 -- 8.3 2018-09-06 12:37:00
2 2018-09-07 12:00:00 Temperatura 1.3 del 07-09-2018 11:00, Menor que la Mínima 5.0 07-09-2018 12:00 1.3 -- 5.0 2018-09-07 12:37:00
2 2018-09-08 12:00:00 Temperatura 1.4 del 08-09-2018 10:00, Menor que la Mínima 4.8 08-09-2018 12:00 1.4 -- 4.8 2018-09-08 12:37:00
2 2018-09-09 12:00:00 Temperatura 0.3 del 09-09-2018 10:00, Menor que la Mínima 7.0 09-09-2018 12:00 0.3 -- 7.0 2018-09-09 12:37:00
2 2018-09-10 12:00:00 Temperatura 0.5 del 10-09-2018 11:00, Menor que la Mínima 4.3 10-09-2018 12:00 0.5 -- 4.3 2018-09-10 12:37:00
2 2018-09-11 12:00:00 Temperatura 1.4 del 11-09-2018 11:00, Menor que la Mínima 3.3 11-09-2018 12:00 1.4 -- 3.3 2018-09-11 12:37:00
2 2018-09-12 12:00:00 Temperatura 2.1 del 12-09-2018 11:00, Menor que la Mínima 4.1 12-09-2018 12:00 2.1 -- 4.1 2018-09-12 12:37:00
2 2018-09-13 12:00:00 Temperatura 0.8 del 13-09-2018 11:00, Menor que la Mínima 6.2 13-09-2018 12:00 0.8 -- 6.2 2018-09-13 12:37:00
2 2018-09-14 12:00:00 Temperatura 2.6 del 14-09-2018 07:00, Menor que la Mínima 4.1 14-09-2018 12:00 2.6 -- 4.1 2018-09-14 12:37:00
2 2018-09-16 12:00:00 Temperatura 4.3 del 16-09-2018 07:00, Menor que la Mínima 10.0 16-09-2018 12:00 4.3 -- 10.0 2018-09-16 12:37:00
2 2018-09-19 12:00:00 Temperatura 4.3 del 19-09-2018 07:00, Menor que la Mínima 10.8 19-09-2018 12:00 4.3 -- 10.8 2018-09-19 12:37:00
2 2018-09-21 12:00:00 Temperatura 4.1 del 21-09-2018 11:00, Menor que la Mínima 9.1 21-09-2018 12:00 4.1 -- 9.1 2018-09-21 12:37:00
2 2018-09-23 12:00:00 Temperatura 6.1 del 23-09-2018 06:00, Menor que la Mínima 11.1 23-09-2018 12:00 6.1 -- 11.1 2018-09-23 12:37:00
2 2018-09-24 12:00:00 Temperatura 7.5 del 24-09-2018 02:00, Menor que la Mínima 8.0 24-09-2018 12:00 7.5 -- 8.0 2018-09-24 12:37:00
2 2018-09-25 12:00:00 Temperatura 5.0 del 25-09-2018 07:00, Menor que la Mínima 9.7 25-09-2018 12:00 5.0 -- 9.7 2018-09-25 12:37:00
2 2018-09-26 12:00:00 Temperatura 9.2 del 26-09-2018 03:00, Menor que la Mínima 11.1 26-09-2018 12:00 9.2 -- 11.1 2018-09-26 12:37:00
2 2018-09-27 12:00:00 Temperatura 11.0 del 27-09-2018 08:00, Menor que la Mínima 11.9 27-09-2018 12:00 11.0 -- 11.9 2018-09-27 12:37:00
2 2018-09-28 12:00:00 Temperatura 11.6 del 28-09-2018 11:00, Menor que la Mínima 12.4 28-09-2018 12:00 11.6 -- 12.4 2018-09-28 12:37:00
2 2018-09-29 12:00:00 Temperatura 10.3 del 29-09-2018 09:00, Menor que la Mínima 11.4 29-09-2018 12:00 10.3 -- 11.4 2018-09-29 12:37:00
2 2018-09-30 12:00:00 Temperatura 10.1 del 30-09-2018 10:00, Menor que la Mínima 11.8 30-09-2018 12:00 10.1 -- 11.8 2018-09-30 12:37:00
2 2018-10-02 12:00:00 Temperatura 5.1 del 02-10-2018 08:00, Menor que la Mínima 7.7 02-10-2018 12:00 5.1 -- 7.7 2018-10-02 12:22:00
2 2018-10-03 12:00:00 Temperatura 3.1 del 03-10-2018 10:00, Menor que la Mínima 8.6 03-10-2018 12:00 3.1 -- 8.6 2018-10-03 12:22:00
2 2018-10-04 12:00:00 Temperatura 4.3 del 04-10-2018 08:00, Menor que la Mínima 10.4 04-10-2018 12:00 4.3 -- 10.4 2018-10-04 12:22:00
2 2018-10-05 12:00:00 Temperatura 7.0 del 05-10-2018 10:00, Menor que la Mínima 10.5 05-10-2018 12:00 7.0 -- 10.5 2018-10-05 12:22:00
2 2018-10-06 12:00:00 Temperatura 7.0 del 06-10-2018 02:00, Menor que la Mínima 9.9 06-10-2018 12:00 7.0 -- 9.9 2018-10-06 12:22:00
2 2018-10-07 12:00:00 Temperatura 8.4 del 07-10-2018 02:00, Menor que la Mínima 9.7 07-10-2018 12:00 8.4 -- 9.7 2018-10-07 12:22:00
2 2018-10-09 12:00:00 Temperatura 6.1 del 09-10-2018 10:00, Menor que la Mínima 10.4 09-10-2018 12:00 6.1 -- 10.4 2018-10-09 12:22:00
2 2018-10-10 12:00:00 Temperatura 3.4 del 10-10-2018 10:00, Menor que la Mínima 9.4 10-10-2018 12:00 3.4 -- 9.4 2018-10-10 12:22:00
2 2018-10-12 12:00:00 Temperatura 9.5 del 12-10-2018 02:00, Menor que la Mínima 9.9 12-10-2018 12:00 9.5 -- 9.9 2018-10-12 12:22:00
2 2018-10-13 12:00:00 Temperatura 6.5 del 13-10-2018 07:00, Menor que la Mínima 9.2 13-10-2018 12:00 6.5 -- 9.2 2018-10-13 12:22:00
2 2018-10-14 12:00:00 Temperatura 2.9 del 14-10-2018 10:00, Menor que la Mínima 8.9 14-10-2018 12:00 2.9 -- 8.9 2018-10-14 12:22:00
2 2018-10-15 12:00:00 Temperatura 4.7 del 15-10-2018 07:00, Menor que la Mínima 6.2 15-10-2018 12:00 4.7 -- 6.2 2018-10-15 12:22:00
2 2018-10-17 12:00:00 Temperatura 10.9 del 17-10-2018 10:00, Menor que la Mínima 12.2 17-10-2018 12:00 10.9 -- 12.2 2018-10-17 12:22:00
2 2018-10-18 12:00:00 Temperatura 5.3 del 18-10-2018 08:00, Menor que la Mínima 11.3 18-10-2018 12:00 5.3 -- 11.3 2018-10-18 12:22:00
2 2018-10-19 12:00:00 Temperatura 2.8 del 19-10-2018 10:00, Menor que la Mínima 7.9 19-10-2018 12:00 2.8 -- 7.9 2018-10-19 12:22:00
2 2018-10-20 12:00:00 Temperatura 3.8 del 20-10-2018 10:00, Menor que la Mínima 9.6 20-10-2018 12:00 3.8 -- 9.6 2018-10-20 12:22:00
2 2018-10-21 12:00:00 Temperatura 6.8 del 21-10-2018 04:00, Menor que la Mínima 9.7 21-10-2018 12:00 6.8 -- 9.7 2018-10-21 12:22:00
2 2018-10-22 12:00:00 Temperatura 10.9 del 22-10-2018 10:00, Menor que la Mínima 12.6 22-10-2018 12:00 10.9 -- 12.6 2018-10-22 12:22:00
2 2018-10-23 12:00:00 Temperatura 7.8 del 23-10-2018 10:00, Menor que la Mínima 13.2 23-10-2018 12:00 7.8 -- 13.2 2018-10-23 12:22:00
2 2018-10-24 12:00:00 Temperatura 9.6 del 24-10-2018 10:00, Menor que la Mínima 11.2 24-10-2018 12:00 9.6 -- 11.2 2018-10-24 12:22:00
2 2018-10-25 12:00:00 Temperatura 8.9 del 25-10-2018 10:00, Menor que la Mínima 12.5 25-10-2018 12:00 8.9 -- 12.5 2018-10-25 12:22:00
2 2018-10-26 12:00:00 Temperatura 5.3 del 26-10-2018 08:00, Menor que la Mínima 13.5 26-10-2018 12:00 5.3 -- 13.5 2018-10-26 12:22:00
2 2018-10-28 12:00:00 Temperatura 10.2 del 28-10-2018 10:00, Menor que la Mínima 14.7 28-10-2018 12:00 10.2 -- 14.7 2018-10-28 12:22:00
2 2018-10-30 12:00:00 Temperatura 11.7 del 30-10-2018 10:00, Menor que la Mínima 13.6 30-10-2018 12:00 11.7 -- 13.6 2018-10-30 13:23:00
2 2018-10-31 12:00:00 Temperatura 9.8 del 31-10-2018 10:00, Menor que la Mínima 13.6 31-10-2018 12:00 9.8 -- 13.6 2018-10-31 12:22:00
2 2018-11-07 12:00:00 Temperatura 5.6 del 07-11-2018 10:00, Menor que la Mínima 15.7 07-11-2018 12:00 5.6 -- 15.7 2018-11-07 12:22:00
2 2018-11-08 12:00:00 Temperatura 7.9 del 08-11-2018 10:00, Menor que la Mínima 16.2 08-11-2018 12:00 7.9 -- 16.2 2018-11-08 12:22:00
2 2018-11-09 12:00:00 Temperatura 3.7 del 09-11-2018 09:00, Menor que la Mínima 13.4 09-11-2018 12:00 3.7 -- 13.4 2018-11-09 12:22:00
2 2018-11-10 12:00:00 Temperatura 8.8 del 10-11-2018 06:00, Menor que la Mínima 11.6 10-11-2018 12:00 8.8 -- 11.6 2018-11-10 12:22:00
2 2018-11-11 12:00:00 Temperatura 9.9 del 11-11-2018 07:00, Menor que la Mínima 14.2 11-11-2018 12:00 9.9 -- 14.2 2018-11-11 12:22:00
2 2018-11-12 12:00:00 Temperatura 9.0 del 12-11-2018 04:00, Menor que la Mínima 15.3 12-11-2018 12:00 9.0 -- 15.3 2018-11-12 12:37:00
2 2018-11-13 12:00:00 Temperatura 5.5 del 13-11-2018 09:00, Menor que la Mínima 14.5 13-11-2018 12:00 5.5 -- 14.5 2018-11-13 12:22:00
2 2018-11-14 12:00:00 Temperatura 5.8 del 14-11-2018 08:00, Menor que la Mínima 12.2 14-11-2018 12:00 5.8 -- 12.2 2018-11-14 12:37:00
2 2018-11-15 12:00:00 Temperatura 8.6 del 15-11-2018 09:00, Menor que la Mínima 14.5 15-11-2018 12:00 8.6 -- 14.5 2018-11-15 12:37:00
2 2018-11-16 12:00:00 Temperatura 8.1 del 16-11-2018 10:00, Menor que la Mínima 16.1 16-11-2018 12:00 8.1 -- 16.1 2018-11-16 12:22:00
2 2018-11-17 12:00:00 Temperatura 13.3 del 17-11-2018 04:00, Menor que la Mínima 13.7 17-11-2018 12:00 13.3 -- 13.7 2018-11-17 12:37:00
2 2018-11-18 12:00:00 Temperatura 7.4 del 18-11-2018 07:00, Menor que la Mínima 15.3 18-11-2018 12:00 7.4 -- 15.3 2018-11-18 12:37:00
2 2018-11-19 12:00:00 Temperatura 9.0 del 19-11-2018 09:00, Menor que la Mínima 18.1 19-11-2018 12:00 9.0 -- 18.1 2018-11-19 12:37:00
2 2018-11-20 12:00:00 Temperatura 7.8 del 20-11-2018 10:00, Menor que la Mínima 17.0 20-11-2018 12:00 7.8 -- 17.0 2018-11-20 12:37:00
2 2018-11-21 12:00:00 Temperatura 7.8 del 21-11-2018 09:00, Menor que la Mínima 16.7 21-11-2018 12:00 7.8 -- 16.7 2018-11-21 12:37:00
2 2018-11-22 12:00:00 Temperatura 10.6 del 22-11-2018 08:00, Menor que la Mínima 16.5 22-11-2018 12:00 10.6 -- 16.5 2018-11-22 12:22:00
2 2018-11-23 12:00:00 Temperatura 12.3 del 23-11-2018 09:00, Menor que la Mínima 18.1 23-11-2018 12:00 12.3 -- 18.1 2018-11-23 12:22:00
2 2018-11-24 12:00:00 Temperatura 7.7 del 24-11-2018 10:00, Menor que la Mínima 17.8 24-11-2018 12:00 7.7 -- 17.8 2018-11-24 12:22:00
2 2018-11-25 12:00:00 Temperatura 10.3 del 25-11-2018 10:00, Menor que la Mínima 17.4 25-11-2018 12:00 10.3 -- 17.4 2018-11-25 12:22:00
2 2018-11-26 12:00:00 Temperatura 6.7 del 26-11-2018 09:00, Menor que la Mínima 13.3 26-11-2018 12:00 6.7 -- 13.3 2018-11-26 12:22:00
2 2018-11-27 12:00:00 Temperatura 5.6 del 27-11-2018 09:00, Menor que la Mínima 15.3 27-11-2018 12:00 5.6 -- 15.3 2018-11-27 12:22:00
2 2018-11-28 12:00:00 Temperatura 6.9 del 28-11-2018 09:00, Menor que la Mínima 15.6 28-11-2018 12:00 6.9 -- 15.6 2018-11-28 12:22:00
2 2018-11-29 12:00:00 Temperatura 10.1 del 29-11-2018 04:00, Menor que la Mínima 14.4 29-11-2018 12:00 10.1 -- 14.4 2018-11-29 12:22:00
2 2018-11-30 12:00:00 Temperatura 9.2 del 30-11-2018 08:00, Menor que la Mínima 13.4 30-11-2018 12:00 9.2 -- 13.4 2018-11-30 12:37:00
2 2018-12-02 12:00:00 Temperatura 8.3 del 02-12-2018 08:00, Menor que la Mínima 17.2 02-12-2018 12:00 8.3 -- 17.2 2018-12-02 12:22:00
2 2018-12-03 12:00:00 Temperatura 10.4 del 03-12-2018 06:00, Menor que la Mínima 16.0 03-12-2018 12:00 10.4 -- 16.0 2018-12-03 12:22:00
2 2018-12-05 12:00:00 Temperatura 12.0 del 05-12-2018 08:00, Menor que la Mínima 16.2 05-12-2018 12:00 12.0 -- 16.2 2018-12-05 12:22:00
2 2018-12-06 12:00:00 Temperatura 9.9 del 06-12-2018 09:00, Menor que la Mínima 15.7 06-12-2018 12:00 9.9 -- 15.7 2018-12-06 12:22:00
2 2018-12-07 12:00:00 Temperatura 14.2 del 07-12-2018 11:00, Menor que la Mínima 16.2 07-12-2018 12:00 14.2 -- 16.2 2018-12-07 12:23:00
2 2018-12-08 12:00:00 Temperatura 12.7 del 08-12-2018 10:00, Menor que la Mínima 14.9 08-12-2018 12:00 12.7 -- 14.9 2018-12-08 12:22:00
2 2018-12-09 12:00:00 Temperatura 8.2 del 09-12-2018 09:00, Menor que la Mínima 17.1 09-12-2018 12:00 8.2 -- 17.1 2018-12-09 12:22:00
2 2018-12-10 12:00:00 Temperatura 9.8 del 10-12-2018 08:00, Menor que la Mínima 15.7 10-12-2018 12:00 9.8 -- 15.7 2018-12-10 12:22:00
2 2018-12-11 12:00:00 Temperatura 11.0 del 11-12-2018 10:00, Menor que la Mínima 16.5 11-12-2018 12:00 11.0 -- 16.5 2018-12-11 12:20:00
2 2018-12-13 12:00:00 Temperatura 8.4 del 13-12-2018 08:00, Menor que la Mínima 16.0 13-12-2018 12:00 8.4 -- 16.0 2018-12-13 12:20:00
2 2018-12-14 12:00:00 Temperatura 7.2 del 14-12-2018 09:00, Menor que la Mínima 16.0 14-12-2018 12:00 7.2 -- 16.0 2018-12-14 12:20:00
2 2018-12-15 12:00:00 Temperatura 7.2 del 15-12-2018 09:00, Menor que la Mínima 16.5 15-12-2018 12:00 7.2 -- 16.5 2018-12-15 12:20:00
2 2018-12-16 12:00:00 Temperatura 6.8 del 16-12-2018 09:00, Menor que la Mínima 16.7 16-12-2018 12:00 6.8 -- 16.7 2018-12-16 12:20:00
2 2018-12-17 12:00:00 Temperatura 10.6 del 17-12-2018 08:00, Menor que la Mínima 16.4 17-12-2018 12:00 10.6 -- 16.4 2018-12-17 12:20:00
2 2018-12-18 12:00:00 Temperatura 9.8 del 18-12-2018 09:00, Menor que la Mínima 17.1 18-12-2018 12:00 9.8 -- 17.1 2018-12-18 12:20:00
2 2018-12-19 12:00:00 Temperatura 13.4 del 19-12-2018 03:00, Menor que la Mínima 17.6 19-12-2018 12:00 13.4 -- 17.6 2018-12-19 12:20:00
2 2018-12-20 12:00:00 Temperatura 12.9 del 20-12-2018 02:00, Menor que la Mínima 14.8 20-12-2018 12:00 12.9 -- 14.8 2018-12-20 12:20:00
2 2018-12-21 12:00:00 Temperatura 8.1 del 21-12-2018 09:00, Menor que la Mínima 16.0 21-12-2018 12:00 8.1 -- 16.0 2018-12-21 12:20:00
2 2018-12-22 12:00:00 Temperatura 14.4 del 22-12-2018 02:00, Menor que la Mínima 16.2 22-12-2018 12:00 14.4 -- 16.2 2018-12-22 12:20:00
2 2018-12-23 12:00:00 Temperatura 12.3 del 23-12-2018 10:00, Menor que la Mínima 14.6 23-12-2018 12:00 12.3 -- 14.6 2018-12-23 12:20:00
2 2018-12-24 12:00:00 Temperatura 9.7 del 24-12-2018 09:00, Menor que la Mínima 13.4 24-12-2018 12:00 9.7 -- 13.4 2018-12-24 12:20:00
2 2018-12-25 12:00:00 Temperatura 11.4 del 25-12-2018 06:00, Menor que la Mínima 16.7 25-12-2018 12:00 11.4 -- 16.7 2018-12-25 12:20:00
2 2018-12-26 12:00:00 Temperatura 14.2 del 26-12-2018 08:00, Menor que la Mínima 16.0 26-12-2018 12:00 14.2 -- 16.0 2018-12-26 12:20:00
2 2018-12-27 12:00:00 Temperatura 9.0 del 27-12-2018 09:00, Menor que la Mínima 15.4 27-12-2018 12:00 9.0 -- 15.4 2018-12-27 12:20:00
2 2018-12-28 12:00:00 Temperatura 9.0 del 28-12-2018 09:00, Menor que la Mínima 17.2 28-12-2018 12:00 9.0 -- 17.2 2018-12-28 12:20:00
2 2018-12-29 12:00:00 Temperatura 7.7 del 29-12-2018 09:00, Menor que la Mínima 15.6 29-12-2018 12:00 7.7 -- 15.6 2018-12-29 12:20:00
2 2018-12-30 12:00:00 Temperatura 8.9 del 30-12-2018 09:00, Menor que la Mínima 15.0 30-12-2018 12:00 8.9 -- 15.0 2018-12-30 12:20:00
2 2018-12-31 12:00:00 Temperatura 6.4 del 31-12-2018 09:00, Menor que la Mínima 17.9 31-12-2018 12:00 6.4 -- 17.9 2018-12-31 12:20:00
2 2019-01-02 12:00:00 Temperatura 9.8 del 02-01-2019 08:00, Menor que la Mínima 16.0 02-01-2019 12:00 9.8 -- 16.0 2019-01-02 12:20:00
2 2019-01-03 12:00:00 Temperatura 13.6 del 03-01-2019 10:00, Menor que la Mínima 17.3 03-01-2019 12:00 13.6 -- 17.3 2019-01-03 12:20:00
2 2019-01-04 12:00:00 Temperatura 9.9 del 04-01-2019 09:00, Menor que la Mínima 17.4 04-01-2019 12:00 9.9 -- 17.4 2019-01-04 12:20:00
2 2019-01-05 12:00:00 Temperatura 10.1 del 05-01-2019 08:00, Menor que la Mínima 17.5 05-01-2019 12:00 10.1 -- 17.5 2019-01-05 12:20:00
2 2019-01-06 12:00:00 Temperatura 10.4 del 06-01-2019 09:00, Menor que la Mínima 13.1 06-01-2019 12:00 10.4 -- 13.1 2019-01-06 12:20:00
2 2019-01-07 12:00:00 Temperatura 11.4 del 07-01-2019 08:00, Menor que la Mínima 15.2 07-01-2019 12:00 11.4 -- 15.2 2019-01-07 12:20:00
2 2019-01-08 12:00:00 Temperatura 12.9 del 08-01-2019 05:00, Menor que la Mínima 14.5 08-01-2019 12:00 12.9 -- 14.5 2019-01-08 12:20:00
2 2019-01-09 12:00:00 Temperatura 13.2 del 09-01-2019 10:00, Menor que la Mínima 16.9 09-01-2019 12:00 13.2 -- 16.9 2019-01-09 12:20:00
2 2019-01-10 12:00:00 Temperatura 8.7 del 10-01-2019 10:00, Menor que la Mínima 15.6 10-01-2019 12:00 8.7 -- 15.6 2019-01-10 12:20:00
2 2019-01-11 12:00:00 Temperatura 7.1 del 11-01-2019 10:00, Menor que la Mínima 17.1 11-01-2019 12:00 7.1 -- 17.1 2019-01-11 12:20:00
2 2019-01-12 12:00:00 Temperatura 9.1 del 12-01-2019 09:00, Menor que la Mínima 15.0 12-01-2019 12:00 9.1 -- 15.0 2019-01-12 12:40:00
2 2019-01-13 12:00:00 Temperatura 12.4 del 13-01-2019 10:00, Menor que la Mínima 13.5 13-01-2019 12:00 12.4 -- 13.5 2019-01-13 12:20:00
2 2019-01-14 12:00:00 Temperatura 12.1 del 14-01-2019 06:00, Menor que la Mínima 15.9 14-01-2019 12:00 12.1 -- 15.9 2019-01-14 12:20:00
2 2019-01-15 12:00:00 Temperatura 10.0 del 15-01-2019 08:00, Menor que la Mínima 14.1 15-01-2019 12:00 10.0 -- 14.1 2019-01-15 12:40:00
2 2019-01-16 12:00:00 Temperatura 10.9 del 16-01-2019 08:00, Menor que la Mínima 13.8 16-01-2019 12:00 10.9 -- 13.8 2019-01-16 12:40:00
2 2019-01-17 12:00:00 Temperatura 8.4 del 17-01-2019 10:00, Menor que la Mínima 14.1 17-01-2019 12:00 8.4 -- 14.1 2019-01-17 12:40:00
2 2019-01-18 12:00:00 Temperatura 9.8 del 18-01-2019 10:00, Menor que la Mínima 16.8 18-01-2019 12:00 9.8 -- 16.8 2019-01-18 12:15:00
2 2019-01-19 12:00:00 Temperatura 11.9 del 19-01-2019 06:00, Menor que la Mínima 17.7 19-01-2019 12:00 11.9 -- 17.7 2019-01-19 12:20:00
2 2019-01-20 12:00:00 Temperatura 13.9 del 20-01-2019 02:00, Menor que la Mínima 14.0 20-01-2019 12:00 13.9 -- 14.0 2019-01-20 12:40:00
2 2019-01-21 12:00:00 Temperatura 8.6 del 21-01-2019 10:00, Menor que la Mínima 15.3 21-01-2019 12:00 8.6 -- 15.3 2019-01-21 12:20:00
2 2019-01-22 12:00:00 Temperatura 9.0 del 22-01-2019 10:00, Menor que la Mínima 16.4 22-01-2019 12:00 9.0 -- 16.4 2019-01-22 12:40:00
2 2019-01-23 12:00:00 Temperatura 7.8 del 23-01-2019 10:00, Menor que la Mínima 13.7 23-01-2019 12:00 7.8 -- 13.7 2019-01-23 12:40:00
2 2019-01-24 12:00:00 Temperatura 8.3 del 24-01-2019 09:00, Menor que la Mínima 17.3 24-01-2019 12:00 8.3 -- 17.3 2019-01-24 12:40:00
2 2019-01-25 12:00:00 Temperatura 10.5 del 25-01-2019 07:00, Menor que la Mínima 13.9 25-01-2019 12:00 10.5 -- 13.9 2019-01-25 12:40:00
2 2019-01-26 12:00:00 Temperatura 11.3 del 26-01-2019 07:00, Menor que la Mínima 13.7 26-01-2019 12:00 11.3 -- 13.7 2019-01-26 12:40:00
2 2019-01-27 12:00:00 Temperatura 9.4 del 27-01-2019 10:00, Menor que la Mínima 22.3 27-01-2019 12:00 9.4 -- 22.3 2019-01-27 12:40:00
2 2019-01-28 12:00:00 Temperatura 7.7 del 28-01-2019 10:00, Menor que la Mínima 17.5 28-01-2019 12:00 7.7 -- 17.5 2019-01-28 12:40:00
2 2019-01-29 12:00:00 Temperatura 9.7 del 29-01-2019 09:00, Menor que la Mínima 17.5 29-01-2019 12:00 9.7 -- 17.5 2019-01-29 12:40:00
2 2019-01-30 12:00:00 Temperatura 12.2 del 30-01-2019 08:00, Menor que la Mínima 15.7 30-01-2019 12:00 12.2 -- 15.7 2019-01-30 12:40:00
2 2019-01-31 12:00:00 Temperatura 9.9 del 31-01-2019 10:00, Menor que la Mínima 13.5 31-01-2019 12:00 9.9 -- 13.5 2019-01-31 12:40:00
2 2019-02-02 12:00:00 Temperatura 8.8 del 02-02-2019 10:00, Menor que la Mínima 18.6 02-02-2019 12:00 8.8 -- 18.6 2019-02-02 12:40:00
2 2019-02-03 12:00:00 Temperatura 12.0 del 03-02-2019 10:00, Menor que la Mínima 13.7 03-02-2019 12:00 12.0 -- 13.7 2019-02-03 12:40:00
2 2019-02-04 12:00:00 Temperatura 13.6 del 04-02-2019 04:00, Menor que la Mínima 14.4 04-02-2019 12:00 13.6 -- 14.4 2019-02-04 12:40:00
2 2019-02-05 12:00:00 Temperatura 11.1 del 05-02-2019 10:00, Menor que la Mínima 14.8 05-02-2019 12:00 11.1 -- 14.8 2019-02-05 12:40:00
2 2019-02-06 12:00:00 Temperatura 9.9 del 06-02-2019 08:00, Menor que la Mínima 14.8 06-02-2019 12:00 9.9 -- 14.8 2019-02-06 12:40:00
2 2019-02-07 12:00:00 Temperatura 11.7 del 07-02-2019 07:00, Menor que la Mínima 12.6 07-02-2019 12:00 11.7 -- 12.6 2019-02-07 12:20:00
2 2019-02-08 12:00:00 Temperatura 9.4 del 08-02-2019 10:00, Menor que la Mínima 15.2 08-02-2019 12:00 9.4 -- 15.2 2019-02-08 12:20:00
2 2019-02-09 12:00:00 Temperatura 8.2 del 09-02-2019 10:00, Menor que la Mínima 14.1 09-02-2019 12:00 8.2 -- 14.1 2019-02-09 12:20:00
2 2019-02-10 12:00:00 Temperatura 10.0 del 10-02-2019 10:00, Menor que la Mínima 15.8 10-02-2019 12:00 10.0 -- 15.8 2019-02-10 12:20:00
2 2019-02-12 12:00:00 Temperatura 8.9 del 12-02-2019 10:00, Menor que la Mínima 17.4 12-02-2019 12:00 8.9 -- 17.4 2019-02-12 12:20:00
2 2019-02-13 12:00:00 Temperatura 7.6 del 13-02-2019 10:00, Menor que la Mínima 14.6 13-02-2019 12:00 7.6 -- 14.6 2019-02-13 12:20:00
2 2019-02-14 12:00:00 Temperatura 9.0 del 14-02-2019 10:00, Menor que la Mínima 13.1 14-02-2019 12:00 9.0 -- 13.1 2019-02-14 12:20:00
2 2019-02-15 12:00:00 Temperatura 11.3 del 15-02-2019 10:00, Menor que la Mínima 15.2 15-02-2019 12:00 11.3 -- 15.2 2019-02-15 12:20:00
2 2019-02-16 12:00:00 Temperatura 15.0 del 16-02-2019 04:00, Menor que la Mínima 16.6 16-02-2019 12:00 15.0 -- 16.6 2019-02-16 12:20:00
2 2019-02-17 12:00:00 Temperatura 9.6 del 17-02-2019 09:00, Menor que la Mínima 17.8 17-02-2019 12:00 9.6 -- 17.8 2019-02-17 12:20:00
2 2019-02-18 12:00:00 Temperatura 12.7 del 18-02-2019 07:00, Menor que la Mínima 14.3 18-02-2019 12:00 12.7 -- 14.3 2019-02-18 12:20:00
2 2019-02-19 12:00:00 Temperatura 14.2 del 19-02-2019 04:00, Menor que la Mínima 14.9 19-02-2019 12:00 14.2 -- 14.9 2019-02-19 12:20:00
2 2019-02-20 12:00:00 Temperatura 14.2 del 20-02-2019 07:00, Menor que la Mínima 15.7 20-02-2019 12:00 14.2 -- 15.7 2019-02-20 12:20:00
2 2019-02-21 12:00:00 Temperatura 16.3 del 21-02-2019 09:00, Menor que la Mínima 17.4 21-02-2019 12:00 16.3 -- 17.4 2019-02-21 12:20:00
2 2019-02-22 12:00:00 Temperatura 17.1 del 22-02-2019 11:00, Menor que la Mínima 17.9 22-02-2019 12:00 17.1 -- 17.9 2019-02-22 12:20:00
2 2019-02-23 12:00:00 Temperatura 12.3 del 23-02-2019 08:00, Menor que la Mínima 18.8 23-02-2019 12:00 12.3 -- 18.8 2019-02-23 12:20:00
2 2019-02-24 12:00:00 Temperatura 11.0 del 24-02-2019 06:00, Menor que la Mínima 19.3 24-02-2019 12:00 11.0 -- 19.3 2019-02-24 12:20:00
2 2019-02-25 12:00:00 Temperatura 9.5 del 25-02-2019 10:00, Menor que la Mínima 17.1 25-02-2019 12:00 9.5 -- 17.1 2019-02-25 12:20:00
2 2019-02-26 12:00:00 Temperatura 5.3 del 26-02-2019 10:00, Menor que la Mínima 15.7 26-02-2019 12:00 5.3 -- 15.7 2019-02-26 12:20:00
2 2019-02-27 12:00:00 Temperatura 7.3 del 27-02-2019 10:00, Menor que la Mínima 11.1 27-02-2019 12:00 7.3 -- 11.1 2019-02-27 12:20:00
2 2019-02-28 12:00:00 Temperatura 9.2 del 28-02-2019 07:00, Menor que la Mínima 12.4 28-02-2019 12:00 9.2 -- 12.4 2019-02-28 12:20:00
2 2019-03-02 12:00:00 Temperatura 8.7 del 02-03-2019 11:00, Menor que la Mínima 11.8 02-03-2019 12:00 8.7 -- 11.8 2019-03-02 12:20:00
2 2019-03-03 12:00:00 Temperatura 8.9 del 03-03-2019 08:00, Menor que la Mínima 14.9 03-03-2019 12:00 8.9 -- 14.9 2019-03-03 12:20:00
2 2019-03-04 12:00:00 Temperatura 7.4 del 04-03-2019 11:00, Menor que la Mínima 13.3 04-03-2019 12:00 7.4 -- 13.3 2019-03-04 12:20:00
2 2019-03-05 12:00:00 Temperatura 8.4 del 05-03-2019 09:00, Menor que la Mínima 12.4 05-03-2019 12:00 8.4 -- 12.4 2019-03-05 12:20:00
2 2019-03-06 12:00:00 Temperatura 6.4 del 06-03-2019 11:00, Menor que la Mínima 14.8 06-03-2019 12:00 6.4 -- 14.8 2019-03-06 12:20:00
2 2019-03-07 12:00:00 Temperatura 7.6 del 07-03-2019 08:00, Menor que la Mínima 11.9 07-03-2019 12:00 7.6 -- 11.9 2019-03-07 12:20:00
2 2019-03-08 12:00:00 Temperatura 9.2 del 08-03-2019 10:00, Menor que la Mínima 11.9 08-03-2019 12:00 9.2 -- 11.9 2019-03-08 12:20:00
2 2019-03-09 12:00:00 Temperatura 9.0 del 09-03-2019 11:00, Menor que la Mínima 13.7 09-03-2019 12:00 9.0 -- 13.7 2019-03-09 12:20:00
2 2019-03-10 12:00:00 Temperatura 9.3 del 10-03-2019 11:00, Menor que la Mínima 12.4 10-03-2019 12:00 9.3 -- 12.4 2019-03-10 12:20:00
2 2019-03-11 12:00:00 Temperatura 9.5 del 11-03-2019 11:00, Menor que la Mínima 12.5 11-03-2019 12:00 9.5 -- 12.5 2019-03-11 12:20:00
2 2019-03-12 12:00:00 Temperatura 9.2 del 12-03-2019 11:00, Menor que la Mínima 12.9 12-03-2019 12:00 9.2 -- 12.9 2019-03-12 12:20:00
2 2019-03-13 12:00:00 Temperatura 12.2 del 13-03-2019 04:00, Menor que la Mínima 12.6 13-03-2019 12:00 12.2 -- 12.6 2019-03-13 12:20:00
2 2019-03-14 12:00:00 Temperatura 6.3 del 14-03-2019 11:00, Menor que la Mínima 12.5 14-03-2019 12:00 6.3 -- 12.5 2019-03-14 12:20:00
2 2019-03-15 12:00:00 Temperatura 4.2 del 15-03-2019 11:00, Menor que la Mínima 12.2 15-03-2019 12:00 4.2 -- 12.2 2019-03-15 12:20:00
2 2019-03-16 12:00:00 Temperatura 7.1 del 16-03-2019 06:00, Menor que la Mínima 9.7 16-03-2019 12:00 7.1 -- 9.7 2019-03-16 12:20:00
2 2019-03-18 12:00:00 Temperatura 7.0 del 18-03-2019 10:00, Menor que la Mínima 11.0 18-03-2019 12:00 7.0 -- 11.0 2019-03-18 12:20:00
2 2019-03-19 12:00:00 Temperatura 9.1 del 19-03-2019 11:00, Menor que la Mínima 15.0 19-03-2019 12:00 9.1 -- 15.0 2019-03-19 12:20:00
2 2019-03-20 12:00:00 Temperatura 4.0 del 20-03-2019 11:00, Menor que la Mínima 11.7 20-03-2019 12:00 4.0 -- 11.7 2019-03-20 12:20:00
2 2019-03-21 12:00:00 Temperatura 4.1 del 21-03-2019 11:00, Menor que la Mínima 7.8 21-03-2019 12:00 4.1 -- 7.8 2019-03-21 12:20:00
2 2019-03-22 12:00:00 Temperatura 7.1 del 22-03-2019 08:00, Menor que la Mínima 8.4 22-03-2019 12:00 7.1 -- 8.4 2019-03-22 12:50:00
2 2019-03-23 12:00:00 Temperatura 7.3 del 23-03-2019 09:00, Menor que la Mínima 14.8 23-03-2019 12:00 7.3 -- 14.8 2019-03-25 19:40:00
2 2019-03-24 12:00:00 Temperatura 8.4 del 24-03-2019 09:00, Menor que la Mínima 14.2 24-03-2019 12:00 8.4 -- 14.2 2019-03-25 19:50:00
2 2019-03-26 12:00:00 Temperatura 7.4 del 26-03-2019 06:00, Menor que la Mínima 9.0 26-03-2019 12:00 7.4 -- 9.0 2019-03-26 12:20:00
2 2019-03-29 12:00:00 Temperatura 4.8 del 29-03-2019 10:00, Menor que la Mínima 12.7 29-03-2019 12:00 4.8 -- 12.7 2019-03-29 12:20:00
2 2019-03-30 12:00:00 Temperatura 5.7 del 30-03-2019 08:00, Menor que la Mínima 7.7 30-03-2019 12:00 5.7 -- 7.7 2019-03-30 12:20:00
2 2019-04-02 12:00:00 Temperatura 6.2 del 02-04-2019 10:00, Menor que la Mínima 10.9 02-04-2019 12:00 6.2 -- 10.9 2019-04-02 12:20:00
2 2019-04-05 12:00:00 Temperatura 5.5 del 05-04-2019 11:00, Menor que la Mínima 14.2 05-04-2019 12:00 5.5 -- 14.2 2019-04-05 12:40:00
2 2019-04-06 12:00:00 Temperatura 5.1 del 06-04-2019 11:00, Menor que la Mínima 9.7 06-04-2019 12:00 5.1 -- 9.7 2019-04-06 12:40:00
2 2019-04-07 12:00:00 Temperatura 3.5 del 07-04-2019 10:00, Menor que la Mínima 9.4 07-04-2019 12:00 3.5 -- 9.4 2019-04-07 12:40:00
2 2019-04-09 12:00:00 Temperatura 11.4 del 09-04-2019 08:00, Menor que la Mínima 11.7 09-04-2019 12:00 11.4 -- 11.7 2019-04-09 12:40:00
2 2019-04-10 12:00:00 Temperatura 5.5 del 10-04-2019 10:00, Menor que la Mínima 12.1 10-04-2019 12:00 5.5 -- 12.1 2019-04-10 12:40:00
2 2019-04-11 12:00:00 Temperatura 7.7 del 11-04-2019 04:00, Menor que la Mínima 7.9 11-04-2019 12:00 7.7 -- 7.9 2019-04-11 12:40:00
2 2019-04-14 12:00:00 Temperatura 7.1 del 14-04-2019 11:00, Menor que la Mínima 11.6 14-04-2019 12:00 7.1 -- 11.6 2019-04-14 12:40:00
2 2019-04-15 12:00:00 Temperatura 2.8 del 15-04-2019 11:00, Menor que la Mínima 8.8 15-04-2019 12:00 2.8 -- 8.8 2019-04-15 12:40:00
2 2019-04-16 12:00:00 Temperatura 1.0 del 16-04-2019 11:00, Menor que la Mínima 5.6 16-04-2019 12:00 1.0 -- 5.6 2019-04-16 12:40:00
2 2019-04-17 12:00:00 Temperatura 1.5 del 17-04-2019 11:00, Menor que la Mínima 4.6 17-04-2019 12:00 1.5 -- 4.6 2019-04-17 12:40:00
2 2019-04-21 12:00:00 Temperatura 4.9 del 21-04-2019 07:00, Menor que la Mínima 10.9 21-04-2019 12:00 4.9 -- 10.9 2019-04-21 12:40:00
2 2019-04-22 12:00:00 Temperatura 4.4 del 22-04-2019 08:00, Menor que la Mínima 7.0 22-04-2019 12:00 4.4 -- 7.0 2019-04-22 12:40:00
2 2019-04-23 12:00:00 Temperatura 5.6 del 23-04-2019 05:00, Menor que la Mínima 8.3 23-04-2019 12:00 5.6 -- 8.3 2019-04-23 12:40:00
2 2019-04-24 12:00:00 Temperatura 8.3 del 24-04-2019 11:00, Menor que la Mínima 8.9 24-04-2019 12:00 8.3 -- 8.9 2019-04-24 12:40:00
2 2019-04-25 12:00:00 Temperatura 4.0 del 25-04-2019 09:00, Menor que la Mínima 9.0 25-04-2019 12:00 4.0 -- 9.0 2019-04-25 12:40:00
2 2019-04-26 12:00:00 Temperatura 2.1 del 26-04-2019 11:00, Menor que la Mínima 6.2 26-04-2019 12:00 2.1 -- 6.2 2019-04-26 12:40:00
2 2019-04-27 12:00:00 Temperatura 3.0 del 27-04-2019 09:00, Menor que la Mínima 3.2 27-04-2019 12:00 3.0 -- 3.2 2019-04-27 12:40:00
2 2019-04-28 12:00:00 Temperatura 2.9 del 28-04-2019 11:00, Menor que la Mínima 4.1 28-04-2019 12:00 2.9 -- 4.1 2019-04-28 12:40:00
2 2019-04-30 12:00:00 Temperatura 5.4 del 30-04-2019 08:00, Menor que la Mínima 11.7 30-04-2019 12:00 5.4 -- 11.7 2019-04-30 12:40:00
2 2019-05-04 12:00:00 Temperatura 13.6 del 04-05-2019 11:00, Menor que la Mínima 14.1 04-05-2019 12:00 13.6 -- 14.1 2019-05-04 12:40:00
2 2019-05-05 12:00:00 Temperatura 11.4 del 05-05-2019 08:00, Menor que la Mínima 13.5 05-05-2019 12:00 11.4 -- 13.5 2019-05-05 12:40:00
2 2019-05-06 12:00:00 Temperatura 5.4 del 06-05-2019 09:00, Menor que la Mínima 13.0 06-05-2019 12:00 5.4 -- 13.0 2019-05-06 12:40:00
2 2019-05-08 12:00:00 Temperatura 6.6 del 08-05-2019 02:00, Menor que la Mínima 9.2 08-05-2019 12:00 6.6 -- 9.2 2019-05-08 12:40:00
2 2019-05-09 12:00:00 Temperatura 6.0 del 09-05-2019 12:00, Menor que la Mínima 9.4 09-05-2019 12:00 6.0 -- 9.4 2019-05-09 12:40:00
2 2019-05-10 12:00:00 Temperatura 3.1 del 10-05-2019 07:00, Menor que la Mínima 5.9 10-05-2019 12:00 3.1 -- 5.9 2019-05-14 19:18:00
2 2019-05-11 12:00:00 Temperatura -0.3 del 11-05-2019 11:00, Menor que la Mínima 3.7 11-05-2019 12:00 -0.3 -- 3.7 2019-05-14 19:18:00
2 2019-05-13 12:00:00 Temperatura 3.3 del 13-05-2019 12:00, Menor que la Mínima 6.0 13-05-2019 12:00 3.3 -- 6.0 2019-05-14 19:18:00
2 2019-05-14 12:00:00 Temperatura 3.0 del 14-05-2019 11:00, Menor que la Mínima 3.2 14-05-2019 12:00 3.0 -- 3.2 2019-05-14 19:18:00
2 2019-05-15 12:00:00 Temperatura 2.9 del 15-05-2019 07:00, Menor que la Mínima 3.3 15-05-2019 12:00 2.9 -- 3.3 2019-05-15 14:18:00
2 2019-05-17 12:00:00 Temperatura 10.5 del 17-05-2019 02:00, Menor que la Mínima 11.7 17-05-2019 12:00 10.5 -- 11.7 2019-05-24 12:53:00
2 2019-05-18 12:00:00 Temperatura 7.3 del 18-05-2019 10:00, Menor que la Mínima 12.5 18-05-2019 12:00 7.3 -- 12.5 2019-05-24 13:11:00
2 2019-05-19 12:00:00 Temperatura 2.4 del 19-05-2019 11:00, Menor que la Mínima 7.9 19-05-2019 12:00 2.4 -- 7.9 2019-05-24 13:30:00
2 2019-05-20 12:00:00 Temperatura -0.2 del 20-05-2019 11:00, Menor que la Mínima 2.5 20-05-2019 12:00 -0.2 -- 2.5 2019-05-24 13:03:00
2 2019-05-22 12:00:00 Temperatura 0.0 del 22-05-2019 10:00, Menor que la Mínima 1.5 22-05-2019 12:00 0.0 -- 1.5 2019-05-24 13:23:00
2 2019-05-23 12:00:00 Temperatura -0.8 del 23-05-2019 11:00, Menor que la Mínima 0.4 23-05-2019 12:00 -0.8 -- 0.4 2019-05-24 13:11:00
2 2019-05-27 12:00:00 Temperatura 2.5 del 27-05-2019 11:00, Menor que la Mínima 10.8 27-05-2019 12:00 2.5 -- 10.8 2019-05-28 12:22:00
2 2019-06-19 12:00:00 Temperatura 1.1 del 19-06-2019 11:00, Menor que la Mínima 1.5 19-06-2019 12:00 1.1 -- 1.5 2019-06-19 12:20:00
2 2019-06-22 12:00:00 Temperatura 1.7 del 22-06-2019 11:00, Menor que la Mínima 6.0 22-06-2019 12:00 1.7 -- 6.0 2019-06-22 12:17:00
2 2019-06-25 12:00:00 Temperatura -0.4 del 25-06-2019 10:00, Menor que la Mínima 4.5 25-06-2019 12:00 -0.4 -- 4.5 2019-06-25 12:20:00
2 2019-06-29 12:00:00 Temperatura 8.9 del 29-06-2019 10:00, Menor que la Mínima 10.7 29-06-2019 12:00 8.9 -- 10.7 2019-06-29 12:20:00
2 2019-06-30 12:00:00 Temperatura 2.7 del 30-06-2019 11:00, Menor que la Mínima 9.1 30-06-2019 12:00 2.7 -- 9.1 2019-06-30 12:20:00
2 2019-07-01 12:00:00 Temperatura -0.6 del 01-07-2019 12:00, Menor que la Mínima 2.8 01-07-2019 12:00 -0.6 -- 2.8 2019-07-01 12:20:00
2 2019-07-05 12:00:00 Temperatura -0.9 del 05-07-2019 11:00, Menor que la Mínima 3.5 05-07-2019 12:00 -0.9 -- 3.5 2019-07-05 12:20:00
2 2019-07-08 12:00:00 Temperatura 7.8 del 08-07-2019 04:00, Menor que la Mínima 10.0 08-07-2019 12:00 7.8 -- 10.0 2019-07-08 12:20:00
2 2019-07-09 12:00:00 Temperatura 2.7 del 09-07-2019 08:00, Menor que la Mínima 9.4 09-07-2019 12:00 2.7 -- 9.4 2019-07-09 12:20:00
2 2019-07-12 12:00:00 Temperatura 4.6 del 12-07-2019 06:00, Menor que la Mínima 8.2 12-07-2019 12:00 4.6 -- 8.2 2019-07-12 12:20:00
2 2019-07-13 12:00:00 Temperatura 1.9 del 13-07-2019 06:00, Menor que la Mínima 4.8 13-07-2019 12:00 1.9 -- 4.8 2019-07-13 12:20:00
2 2019-07-15 12:00:00 Temperatura 1.8 del 15-07-2019 11:00, Menor que la Mínima 6.1 15-07-2019 12:00 1.8 -- 6.1 2019-07-15 12:20:00
2 2019-07-16 12:00:00 Temperatura 0.5 del 16-07-2019 12:00, Menor que la Mínima 1.5 16-07-2019 12:00 0.5 -- 1.5 2019-07-16 23:10:00
2 2019-07-19 12:00:00 Temperatura -0.7 del 19-07-2019 12:00, Menor que la Mínima 7.4 19-07-2019 12:00 -0.7 -- 7.4 2019-07-19 12:20:00
2 2019-07-22 12:00:00 Temperatura 0.3 del 22-07-2019 09:00, Menor que la Mínima 5.4 22-07-2019 12:00 0.3 -- 5.4 2019-07-22 12:20:00
2 2019-07-24 12:00:00 Temperatura -3.4 del 24-07-2019 11:00, Menor que la Mínima 0.7 24-07-2019 12:00 -3.4 -- 0.7 2019-07-24 12:20:00
2 2019-07-26 12:00:00 Temperatura 4.1 del 26-07-2019 08:00, Menor que la Mínima 6.1 26-07-2019 12:00 4.1 -- 6.1 2019-07-26 12:20:00
Errores del Nivel 655
Informe generado el 05-03-2024 10:27
Requerimiento: RE6001